<?xml version="1.0" encoding="utf-8"?>
<gpx xmlns:xsi="http://www.w3.org/2001/XMLSchema-instance" xmlns:xsd="http://www.w3.org/2001/XMLSchema" version="1.1" creator="Shapelink.com" xmlns="http://www.topografix.com/GPX/1/1" xmlns:gpxtpx="http://www.garmin.com/xmlschemas/TrackPointExtension/v1">
  <metadata>
    <name>Løping 9.98 km, 2014-05-13</name>
    <desc></desc>
    <author><name>Dennis Rehn</name></author> 
    <time>2014-05-13T18:57:18Z</time>
  </metadata>
  <trk>
    <name>Løping 9.98 km, 2014-05-13</name>
    <trkseg>
      <trkpt lat="59.995532571245" lon="23.427335984909">
        <ele>8.2</ele>
        <time>2014-05-13T18:57:18Z</time>
      </trkpt>
      <trkpt lat="59.995776819811" lon="23.427027195713">
        <ele>8.2</ele>
        <time>2014-05-13T18:57:29Z</time>
      </trkpt>
      <trkpt lat="59.995872038195" lon="23.426850002347">
        <ele>8.2</ele>
        <time>2014-05-13T18:57:33Z</time>
      </trkpt>
      <trkpt lat="59.995978320687" lon="23.426658559751">
        <ele>8.2</ele>
        <time>2014-05-13T18:57:38Z</time>
      </trkpt>
      <trkpt lat="59.996111844354" lon="23.426503075506">
        <ele>8.2</ele>
        <time>2014-05-13T18:57:43Z</time>
      </trkpt>
      <trkpt lat="59.99625886288" lon="23.426318422249">
        <ele>8.2</ele>
        <time>2014-05-13T18:57:48Z</time>
      </trkpt>
      <trkpt lat="59.996441672119" lon="23.426200069821">
        <ele>8.2</ele>
        <time>2014-05-13T18:57:54Z</time>
      </trkpt>
      <trkpt lat="59.996557593796" lon="23.42623619581">
        <ele>8.2</ele>
        <time>2014-05-13T18:57:58Z</time>
      </trkpt>
      <trkpt lat="59.996694218766" lon="23.426131002965">
        <ele>8.2</ele>
        <time>2014-05-13T18:58:02Z</time>
      </trkpt>
      <trkpt lat="59.996849703011" lon="23.426026313034">
        <ele>8.2</ele>
        <time>2014-05-13T18:58:07Z</time>
      </trkpt>
      <trkpt lat="59.997011808957" lon="23.425987001923">
        <ele>9</ele>
        <time>2014-05-13T18:58:12Z</time>
      </trkpt>
      <trkpt lat="59.997140219665" lon="23.426015500383">
        <ele>9.4</ele>
        <time>2014-05-13T18:58:16Z</time>
      </trkpt>
      <trkpt lat="59.997281957594" lon="23.426033437649">
        <ele>9.8</ele>
        <time>2014-05-13T18:58:21Z</time>
      </trkpt>
      <trkpt lat="59.997439956409" lon="23.426046178137">
        <ele>10.8</ele>
        <time>2014-05-13T18:58:26Z</time>
      </trkpt>
      <trkpt lat="59.997598625776" lon="23.426057912797">
        <ele>11.4</ele>
        <time>2014-05-13T18:58:31Z</time>
      </trkpt>
      <trkpt lat="59.997709853589" lon="23.426085070153">
        <ele>12.4</ele>
        <time>2014-05-13T18:58:34Z</time>
      </trkpt>
      <trkpt lat="59.997910013361" lon="23.42607861609">
        <ele>13.2</ele>
        <time>2014-05-13T18:58:40Z</time>
      </trkpt>
      <trkpt lat="59.998083351053" lon="23.426058415711">
        <ele>14.6</ele>
        <time>2014-05-13T18:58:45Z</time>
      </trkpt>
      <trkpt lat="59.998217042358" lon="23.426068473991">
        <ele>15.4</ele>
        <time>2014-05-13T18:58:49Z</time>
      </trkpt>
      <trkpt lat="59.998394487181" lon="23.426000580601">
        <ele>16.6</ele>
        <time>2014-05-13T18:58:54Z</time>
      </trkpt>
      <trkpt lat="59.998583834302" lon="23.425942158758">
        <ele>17.6</ele>
        <time>2014-05-13T18:58:59Z</time>
      </trkpt>
      <trkpt lat="59.998764548066" lon="23.425902009457">
        <ele>18</ele>
        <time>2014-05-13T18:59:04Z</time>
      </trkpt>
      <trkpt lat="59.998946267658" lon="23.425870828789">
        <ele>18.2</ele>
        <time>2014-05-13T18:59:10Z</time>
      </trkpt>
      <trkpt lat="59.999120946454" lon="23.425910558995">
        <ele>18.8</ele>
        <time>2014-05-13T18:59:14Z</time>
      </trkpt>
      <trkpt lat="59.99929646344" lon="23.425992953072">
        <ele>19.6</ele>
        <time>2014-05-13T18:59:20Z</time>
      </trkpt>
      <trkpt lat="59.999495868841" lon="23.426094290243">
        <ele>20</ele>
        <time>2014-05-13T18:59:26Z</time>
      </trkpt>
      <trkpt lat="59.999690999473" lon="23.426179534166">
        <ele>20.4</ele>
        <time>2014-05-13T18:59:32Z</time>
      </trkpt>
      <trkpt lat="59.999849082107" lon="23.426275423102">
        <ele>20.4</ele>
        <time>2014-05-13T18:59:37Z</time>
      </trkpt>
      <trkpt lat="60.000045134748" lon="23.426414646461">
        <ele>20.6</ele>
        <time>2014-05-13T18:59:42Z</time>
      </trkpt>
      <trkpt lat="60.000206821599" lon="23.426607430161">
        <ele>20.6</ele>
        <time>2014-05-13T18:59:47Z</time>
      </trkpt>
      <trkpt lat="60.000365323328" lon="23.42685980917">
        <ele>20.6</ele>
        <time>2014-05-13T18:59:53Z</time>
      </trkpt>
      <trkpt lat="60.000479820082" lon="23.427074301991">
        <ele>21.4</ele>
        <time>2014-05-13T18:59:58Z</time>
      </trkpt>
      <trkpt lat="60.000583420366" lon="23.427306145345">
        <ele>22</ele>
        <time>2014-05-13T19:00:03Z</time>
      </trkpt>
      <trkpt lat="60.000683248795" lon="23.427523739469">
        <ele>22.2</ele>
        <time>2014-05-13T19:00:09Z</time>
      </trkpt>
      <trkpt lat="60.000805708354" lon="23.427746111276">
        <ele>22.4</ele>
        <time>2014-05-13T19:00:14Z</time>
      </trkpt>
      <trkpt lat="60.000934202881" lon="23.427994969887">
        <ele>22.6</ele>
        <time>2014-05-13T19:00:19Z</time>
      </trkpt>
      <trkpt lat="60.001093710438" lon="23.428256485167">
        <ele>22.6</ele>
        <time>2014-05-13T19:00:25Z</time>
      </trkpt>
      <trkpt lat="60.00123184415" lon="23.428435774008">
        <ele>22.6</ele>
        <time>2014-05-13T19:00:30Z</time>
      </trkpt>
      <trkpt lat="60.001355812451" lon="23.428628557708">
        <ele>22.6</ele>
        <time>2014-05-13T19:00:34Z</time>
      </trkpt>
      <trkpt lat="60.001372240975" lon="23.428681950411">
        <ele>22.8</ele>
        <time>2014-05-13T19:00:36Z</time>
      </trkpt>
      <trkpt lat="60.001501573692" lon="23.428795776613">
        <ele>22.8</ele>
        <time>2014-05-13T19:00:40Z</time>
      </trkpt>
      <trkpt lat="60.001631744599" lon="23.428819078295">
        <ele>22.8</ele>
        <time>2014-05-13T19:00:44Z</time>
      </trkpt>
      <trkpt lat="60.001658063765" lon="23.428790076921">
        <ele>22.8</ele>
        <time>2014-05-13T19:00:46Z</time>
      </trkpt>
      <trkpt lat="60.00171799435" lon="23.428726039205">
        <ele>22.8</ele>
        <time>2014-05-13T19:00:49Z</time>
      </trkpt>
      <trkpt lat="60.001800556065" lon="23.428812037499">
        <ele>22.8</ele>
        <time>2014-05-13T19:00:54Z</time>
      </trkpt>
      <trkpt lat="60.00185126656" lon="23.42876082409">
        <ele>22.8</ele>
        <time>2014-05-13T19:00:57Z</time>
      </trkpt>
      <trkpt lat="60.001923937633" lon="23.428653954865">
        <ele>22.8</ele>
        <time>2014-05-13T19:01:01Z</time>
      </trkpt>
      <trkpt lat="60.002034411075" lon="23.428595868298">
        <ele>22.8</ele>
        <time>2014-05-13T19:01:06Z</time>
      </trkpt>
      <trkpt lat="60.002129042726" lon="23.42847164854">
        <ele>22.8</ele>
        <time>2014-05-13T19:01:10Z</time>
      </trkpt>
      <trkpt lat="60.002155697168" lon="23.428329407697">
        <ele>22.8</ele>
        <time>2014-05-13T19:01:15Z</time>
      </trkpt>
      <trkpt lat="60.002232307734" lon="23.428174761642">
        <ele>22.8</ele>
        <time>2014-05-13T19:01:19Z</time>
      </trkpt>
      <trkpt lat="60.002351582171" lon="23.428051799169">
        <ele>22.8</ele>
        <time>2014-05-13T19:01:23Z</time>
      </trkpt>
      <trkpt lat="60.002397095888" lon="23.427942583012">
        <ele>22.8</ele>
        <time>2014-05-13T19:01:26Z</time>
      </trkpt>
      <trkpt lat="60.002512933746" lon="23.427900254417">
        <ele>22.8</ele>
        <time>2014-05-13T19:01:31Z</time>
      </trkpt>
      <trkpt lat="60.002539588188" lon="23.427936967139">
        <ele>22.8</ele>
        <time>2014-05-13T19:01:33Z</time>
      </trkpt>
      <trkpt lat="60.002678057176" lon="23.42798717472">
        <ele>23.2</ele>
        <time>2014-05-13T19:01:38Z</time>
      </trkpt>
      <trkpt lat="60.002781992736" lon="23.427892375431">
        <ele>23.8</ele>
        <time>2014-05-13T19:01:42Z</time>
      </trkpt>
      <trkpt lat="60.002880480061" lon="23.42783630052">
        <ele>24.2</ele>
        <time>2014-05-13T19:01:46Z</time>
      </trkpt>
      <trkpt lat="60.002948205813" lon="23.427822638023">
        <ele>24.2</ele>
        <time>2014-05-13T19:01:50Z</time>
      </trkpt>
      <trkpt lat="60.003097571271" lon="23.42769464641">
        <ele>24.4</ele>
        <time>2014-05-13T19:01:55Z</time>
      </trkpt>
      <trkpt lat="60.003167057222" lon="23.427652569272">
        <ele>24.6</ele>
        <time>2014-05-13T19:01:57Z</time>
      </trkpt>
      <trkpt lat="60.003255318629" lon="23.42753455212">
        <ele>25.2</ele>
        <time>2014-05-13T19:02:02Z</time>
      </trkpt>
      <trkpt lat="60.003334276127" lon="23.427327603009">
        <ele>25.8</ele>
        <time>2014-05-13T19:02:07Z</time>
      </trkpt>
      <trkpt lat="60.003358080723" lon="23.427239844516">
        <ele>26</ele>
        <time>2014-05-13T19:02:09Z</time>
      </trkpt>
      <trkpt lat="60.003398397662" lon="23.426975395571">
        <ele>26.2</ele>
        <time>2014-05-13T19:02:13Z</time>
      </trkpt>
      <trkpt lat="60.003472828934" lon="23.426738187801">
        <ele>26.4</ele>
        <time>2014-05-13T19:02:17Z</time>
      </trkpt>
      <trkpt lat="60.003554301002" lon="23.426395619548">
        <ele>26.8</ele>
        <time>2014-05-13T19:02:24Z</time>
      </trkpt>
      <trkpt lat="60.003502752317" lon="23.426163524737">
        <ele>27.6</ele>
        <time>2014-05-13T19:02:27Z</time>
      </trkpt>
      <trkpt lat="60.003508535828" lon="23.426097475365">
        <ele>27.6</ele>
        <time>2014-05-13T19:02:28Z</time>
      </trkpt>
      <trkpt lat="60.003517253004" lon="23.425814334783">
        <ele>28</ele>
        <time>2014-05-13T19:02:33Z</time>
      </trkpt>
      <trkpt lat="60.00354441036" lon="23.425618701237">
        <ele>28.4</ele>
        <time>2014-05-13T19:02:36Z</time>
      </trkpt>
      <trkpt lat="60.003597132511" lon="23.425406806805">
        <ele>28.6</ele>
        <time>2014-05-13T19:02:40Z</time>
      </trkpt>
      <trkpt lat="60.003622278211" lon="23.425278815192">
        <ele>28.6</ele>
        <time>2014-05-13T19:02:43Z</time>
      </trkpt>
      <trkpt lat="60.003636275984" lon="23.425025346536">
        <ele>28.6</ele>
        <time>2014-05-13T19:02:47Z</time>
      </trkpt>
      <trkpt lat="60.003642310952" lon="23.424855026328">
        <ele>28.8</ele>
        <time>2014-05-13T19:02:51Z</time>
      </trkpt>
      <trkpt lat="60.003608280438" lon="23.424504662908">
        <ele>28.8</ele>
        <time>2014-05-13T19:02:57Z</time>
      </trkpt>
      <trkpt lat="60.00362990574" lon="23.42427231664">
        <ele>28.8</ele>
        <time>2014-05-13T19:03:02Z</time>
      </trkpt>
      <trkpt lat="60.00368690266" lon="23.423980961796">
        <ele>28.8</ele>
        <time>2014-05-13T19:03:07Z</time>
      </trkpt>
      <trkpt lat="60.0037673689" lon="23.423703772363">
        <ele>28.8</ele>
        <time>2014-05-13T19:03:13Z</time>
      </trkpt>
      <trkpt lat="60.003861078542" lon="23.423455332847">
        <ele>29.4</ele>
        <time>2014-05-13T19:03:17Z</time>
      </trkpt>
      <trkpt lat="60.003948501759" lon="23.423229943556">
        <ele>30</ele>
        <time>2014-05-13T19:03:22Z</time>
      </trkpt>
      <trkpt lat="60.004075571363" lon="23.423055767674">
        <ele>30.4</ele>
        <time>2014-05-13T19:03:28Z</time>
      </trkpt>
      <trkpt lat="60.004211944876" lon="23.422932218468">
        <ele>30.6</ele>
        <time>2014-05-13T19:03:34Z</time>
      </trkpt>
      <trkpt lat="60.004326776906" lon="23.422828282908">
        <ele>30.8</ele>
        <time>2014-05-13T19:03:39Z</time>
      </trkpt>
      <trkpt lat="60.004443872049" lon="23.422764831925">
        <ele>30.8</ele>
        <time>2014-05-13T19:03:44Z</time>
      </trkpt>
      <trkpt lat="60.00457286949" lon="23.422695010698">
        <ele>31.6</ele>
        <time>2014-05-13T19:03:49Z</time>
      </trkpt>
      <trkpt lat="60.004681582733" lon="23.422597193925">
        <ele>32</ele>
        <time>2014-05-13T19:03:52Z</time>
      </trkpt>
      <trkpt lat="60.00476230043" lon="23.422546734887">
        <ele>32.2</ele>
        <time>2014-05-13T19:03:56Z</time>
      </trkpt>
      <trkpt lat="60.004875791356" lon="23.422484289732">
        <ele>32.6</ele>
        <time>2014-05-13T19:04:00Z</time>
      </trkpt>
      <trkpt lat="60.004898254848" lon="23.422452270874">
        <ele>32.6</ele>
        <time>2014-05-13T19:04:01Z</time>
      </trkpt>
      <trkpt lat="60.005042674985" lon="23.422334672817">
        <ele>33.2</ele>
        <time>2014-05-13T19:04:06Z</time>
      </trkpt>
      <trkpt lat="60.005207211682" lon="23.42221791295">
        <ele>34</ele>
        <time>2014-05-13T19:04:12Z</time>
      </trkpt>
      <trkpt lat="60.005355990407" lon="23.422111546639">
        <ele>34.4</ele>
        <time>2014-05-13T19:04:16Z</time>
      </trkpt>
      <trkpt lat="60.005482557097" lon="23.422100231074">
        <ele>34.6</ele>
        <time>2014-05-13T19:04:21Z</time>
      </trkpt>
      <trkpt lat="60.005500662001" lon="23.422113893571">
        <ele>34.8</ele>
        <time>2014-05-13T19:04:22Z</time>
      </trkpt>
      <trkpt lat="60.005486245133" lon="23.422244148297">
        <ele>35.4</ele>
        <time>2014-05-13T19:04:25Z</time>
      </trkpt>
      <trkpt lat="60.005483898201" lon="23.422293852964">
        <ele>35.6</ele>
        <time>2014-05-13T19:04:26Z</time>
      </trkpt>
      <trkpt lat="60.005461015614" lon="23.422521505368">
        <ele>36</ele>
        <time>2014-05-13T19:04:30Z</time>
      </trkpt>
      <trkpt lat="60.005521952027" lon="23.422787546874">
        <ele>36.4</ele>
        <time>2014-05-13T19:04:34Z</time>
      </trkpt>
      <trkpt lat="60.005557407464" lon="23.422913023917">
        <ele>36.6</ele>
        <time>2014-05-13T19:04:37Z</time>
      </trkpt>
      <trkpt lat="60.005555814903" lon="23.423247126451">
        <ele>36.8</ele>
        <time>2014-05-13T19:04:42Z</time>
      </trkpt>
      <trkpt lat="60.005579116585" lon="23.423403700343">
        <ele>36.8</ele>
        <time>2014-05-13T19:04:46Z</time>
      </trkpt>
      <trkpt lat="60.00562898889" lon="23.423663455424">
        <ele>36.8</ele>
        <time>2014-05-13T19:04:52Z</time>
      </trkpt>
      <trkpt lat="60.005718004668" lon="23.423864369567">
        <ele>37</ele>
        <time>2014-05-13T19:04:57Z</time>
      </trkpt>
      <trkpt lat="60.005744156196" lon="23.423947434196">
        <ele>37.4</ele>
        <time>2014-05-13T19:04:58Z</time>
      </trkpt>
      <trkpt lat="60.005744240015" lon="23.424171985297">
        <ele>37.8</ele>
        <time>2014-05-13T19:05:02Z</time>
      </trkpt>
      <trkpt lat="60.005740216703" lon="23.424266365491">
        <ele>38.2</ele>
        <time>2014-05-13T19:05:05Z</time>
      </trkpt>
      <trkpt lat="60.005736444848" lon="23.424476415905">
        <ele>38.4</ele>
        <time>2014-05-13T19:05:09Z</time>
      </trkpt>
      <trkpt lat="60.0057371154" lon="23.424713958951">
        <ele>38.6</ele>
        <time>2014-05-13T19:05:13Z</time>
      </trkpt>
      <trkpt lat="60.005640304455" lon="23.424860139287">
        <ele>38.8</ele>
        <time>2014-05-13T19:05:17Z</time>
      </trkpt>
      <trkpt lat="60.005516922887" lon="23.424907916117">
        <ele>38.8</ele>
        <time>2014-05-13T19:05:22Z</time>
      </trkpt>
      <trkpt lat="60.005412987327" lon="23.42501830574">
        <ele>39</ele>
        <time>2014-05-13T19:05:27Z</time>
      </trkpt>
      <trkpt lat="60.005315086735" lon="23.425121570748">
        <ele>39</ele>
        <time>2014-05-13T19:05:31Z</time>
      </trkpt>
      <trkpt lat="60.005207882234" lon="23.425243527393">
        <ele>39</ele>
        <time>2014-05-13T19:05:35Z</time>
      </trkpt>
      <trkpt lat="60.005166475648" lon="23.425358862337">
        <ele>39</ele>
        <time>2014-05-13T19:05:38Z</time>
      </trkpt>
      <trkpt lat="60.005100761552" lon="23.425546700716">
        <ele>39</ele>
        <time>2014-05-13T19:05:44Z</time>
      </trkpt>
      <trkpt lat="60.004991461576" lon="23.425600512514">
        <ele>39</ele>
        <time>2014-05-13T19:05:48Z</time>
      </trkpt>
      <trkpt lat="60.004931447172" lon="23.425619455608">
        <ele>39</ele>
        <time>2014-05-13T19:05:51Z</time>
      </trkpt>
      <trkpt lat="60.00488048522" lon="23.425750548524">
        <ele>39</ele>
        <time>2014-05-13T19:05:54Z</time>
      </trkpt>
      <trkpt lat="60.004801360084" lon="23.425882311992">
        <ele>39</ele>
        <time>2014-05-13T19:05:58Z</time>
      </trkpt>
      <trkpt lat="60.004824577947" lon="23.426040226988">
        <ele>39</ele>
        <time>2014-05-13T19:06:01Z</time>
      </trkpt>
      <trkpt lat="60.00484192848" lon="23.426085070153">
        <ele>39</ele>
        <time>2014-05-13T19:06:02Z</time>
      </trkpt>
      <trkpt lat="60.004840503557" lon="23.426144162548">
        <ele>39</ele>
        <time>2014-05-13T19:06:03Z</time>
      </trkpt>
      <trkpt lat="60.004833798037" lon="23.426421687257">
        <ele>39</ele>
        <time>2014-05-13T19:06:08Z</time>
      </trkpt>
      <trkpt lat="60.004828852716" lon="23.426486395525">
        <ele>39</ele>
        <time>2014-05-13T19:06:09Z</time>
      </trkpt>
      <trkpt lat="60.004819381169" lon="23.426819911326">
        <ele>39</ele>
        <time>2014-05-13T19:06:14Z</time>
      </trkpt>
      <trkpt lat="60.004828685078" lon="23.427138507345">
        <ele>39</ele>
        <time>2014-05-13T19:06:19Z</time>
      </trkpt>
      <trkpt lat="60.004833295123" lon="23.427337493651">
        <ele>39</ele>
        <time>2014-05-13T19:06:22Z</time>
      </trkpt>
      <trkpt lat="60.004775376194" lon="23.427600601492">
        <ele>39</ele>
        <time>2014-05-13T19:06:27Z</time>
      </trkpt>
      <trkpt lat="60.004723659871" lon="23.42785557889">
        <ele>39</ele>
        <time>2014-05-13T19:06:32Z</time>
      </trkpt>
      <trkpt lat="60.004728605192" lon="23.428090355909">
        <ele>39</ele>
        <time>2014-05-13T19:06:37Z</time>
      </trkpt>
      <trkpt lat="60.004769760321" lon="23.428131511038">
        <ele>39</ele>
        <time>2014-05-13T19:06:42Z</time>
      </trkpt>
      <trkpt lat="60.004840755014" lon="23.428206864319">
        <ele>39</ele>
        <time>2014-05-13T19:06:45Z</time>
      </trkpt>
      <trkpt lat="60.004860955393" lon="23.428359247261">
        <ele>39</ele>
        <time>2014-05-13T19:06:48Z</time>
      </trkpt>
      <trkpt lat="60.004870007845" lon="23.428446838116">
        <ele>39</ele>
        <time>2014-05-13T19:06:50Z</time>
      </trkpt>
      <trkpt lat="60.004926669489" lon="23.428608524967">
        <ele>39</ele>
        <time>2014-05-13T19:06:54Z</time>
      </trkpt>
      <trkpt lat="60.005008309195" lon="23.428661498575">
        <ele>39</ele>
        <time>2014-05-13T19:06:57Z</time>
      </trkpt>
      <trkpt lat="60.005104952502" lon="23.428749257068">
        <ele>39</ele>
        <time>2014-05-13T19:07:01Z</time>
      </trkpt>
      <trkpt lat="60.005149292753" lon="23.428782952306">
        <ele>39</ele>
        <time>2014-05-13T19:07:04Z</time>
      </trkpt>
      <trkpt lat="60.005206792587" lon="23.428794267871">
        <ele>39</ele>
        <time>2014-05-13T19:07:07Z</time>
      </trkpt>
      <trkpt lat="60.005320451151" lon="23.428864256736">
        <ele>39</ele>
        <time>2014-05-13T19:07:12Z</time>
      </trkpt>
      <trkpt lat="60.005387422532" lon="23.428836680285">
        <ele>39</ele>
        <time>2014-05-13T19:07:15Z</time>
      </trkpt>
      <trkpt lat="60.005499739992" lon="23.428762919565">
        <ele>39</ele>
        <time>2014-05-13T19:07:20Z</time>
      </trkpt>
      <trkpt lat="60.005517341982" lon="23.428737606227">
        <ele>39</ele>
        <time>2014-05-13T19:07:21Z</time>
      </trkpt>
      <trkpt lat="60.005562436604" lon="23.428703659532">
        <ele>39</ele>
        <time>2014-05-13T19:07:22Z</time>
      </trkpt>
      <trkpt lat="60.005654721323" lon="23.42853954193">
        <ele>38.2</ele>
        <time>2014-05-13T19:07:28Z</time>
      </trkpt>
      <trkpt lat="60.00565245821" lon="23.428506517244">
        <ele>38.2</ele>
        <time>2014-05-13T19:07:29Z</time>
      </trkpt>
      <trkpt lat="60.005787071524" lon="23.428258329185">
        <ele>37.6</ele>
        <time>2014-05-13T19:07:36Z</time>
      </trkpt>
      <trkpt lat="60.005862676262" lon="23.428012236601">
        <ele>37.2</ele>
        <time>2014-05-13T19:07:42Z</time>
      </trkpt>
      <trkpt lat="60.00589301874" lon="23.427766311655">
        <ele>37.2</ele>
        <time>2014-05-13T19:07:47Z</time>
      </trkpt>
      <trkpt lat="60.005907854703" lon="23.427660867353">
        <ele>37</ele>
        <time>2014-05-13T19:07:49Z</time>
      </trkpt>
      <trkpt lat="60.005847002109" lon="23.427522733641">
        <ele>37</ele>
        <time>2014-05-13T19:07:53Z</time>
      </trkpt>
      <trkpt lat="60.005815569984" lon="23.427478225752">
        <ele>37</ele>
        <time>2014-05-13T19:07:55Z</time>
      </trkpt>
      <trkpt lat="60.005787574438" lon="23.427283011301">
        <ele>37</ele>
        <time>2014-05-13T19:08:00Z</time>
      </trkpt>
      <trkpt lat="60.005817833097" lon="23.427266247501">
        <ele>37</ele>
        <time>2014-05-13T19:08:03Z</time>
      </trkpt>
      <trkpt lat="60.005837195286" lon="23.427243867828">
        <ele>37</ele>
        <time>2014-05-13T19:08:04Z</time>
      </trkpt>
      <trkpt lat="60.005893270197" lon="23.427175890619">
        <ele>37</ele>
        <time>2014-05-13T19:08:08Z</time>
      </trkpt>
      <trkpt lat="60.005901735916" lon="23.427168095452">
        <ele>37</ele>
        <time>2014-05-13T19:08:11Z</time>
      </trkpt>
      <trkpt lat="60.005905423952" lon="23.427131466549">
        <ele>36.8</ele>
        <time>2014-05-13T19:08:16Z</time>
      </trkpt>
      <trkpt lat="60.005882792822" lon="23.427126437409">
        <ele>36.2</ele>
        <time>2014-05-13T19:08:20Z</time>
      </trkpt>
      <trkpt lat="60.005871309619" lon="23.427135154585">
        <ele>36</ele>
        <time>2014-05-13T19:08:21Z</time>
      </trkpt>
      <trkpt lat="60.005803583867" lon="23.427160635561">
        <ele>35.6</ele>
        <time>2014-05-13T19:08:26Z</time>
      </trkpt>
      <trkpt lat="60.00576561386" lon="23.427203383251">
        <ele>35.2</ele>
        <time>2014-05-13T19:08:31Z</time>
      </trkpt>
      <trkpt lat="60.00580249422" lon="23.427381917721">
        <ele>35.2</ele>
        <time>2014-05-13T19:08:34Z</time>
      </trkpt>
      <trkpt lat="60.005849768136" lon="23.427483003435">
        <ele>35</ele>
        <time>2014-05-13T19:08:37Z</time>
      </trkpt>
      <trkpt lat="60.0058712258" lon="23.427548633712">
        <ele>35</ele>
        <time>2014-05-13T19:08:39Z</time>
      </trkpt>
      <trkpt lat="60.005877344587" lon="23.427595907628">
        <ele>35</ele>
        <time>2014-05-13T19:08:40Z</time>
      </trkpt>
      <trkpt lat="60.005896455319" lon="23.427944175573">
        <ele>35</ele>
        <time>2014-05-13T19:08:47Z</time>
      </trkpt>
      <trkpt lat="60.00586200571" lon="23.428170235416">
        <ele>35</ele>
        <time>2014-05-13T19:08:52Z</time>
      </trkpt>
      <trkpt lat="60.005769385715" lon="23.428240643376">
        <ele>35</ele>
        <time>2014-05-13T19:08:57Z</time>
      </trkpt>
      <trkpt lat="60.005693194244" lon="23.428211139088">
        <ele>35</ele>
        <time>2014-05-13T19:09:00Z</time>
      </trkpt>
      <trkpt lat="60.005625133216" lon="23.428169816321">
        <ele>35</ele>
        <time>2014-05-13T19:09:02Z</time>
      </trkpt>
      <trkpt lat="60.00559294672" lon="23.427958089527">
        <ele>35</ele>
        <time>2014-05-13T19:09:06Z</time>
      </trkpt>
      <trkpt lat="60.005594874557" lon="23.427858344917">
        <ele>35</ele>
        <time>2014-05-13T19:09:07Z</time>
      </trkpt>
      <trkpt lat="60.005604010828" lon="23.427666483226">
        <ele>35</ele>
        <time>2014-05-13T19:09:13Z</time>
      </trkpt>
      <trkpt lat="60.005600071335" lon="23.427464395617">
        <ele>35</ele>
        <time>2014-05-13T19:09:16Z</time>
      </trkpt>
      <trkpt lat="60.005609542882" lon="23.42743145475">
        <ele>35</ele>
        <time>2014-05-13T19:09:17Z</time>
      </trkpt>
      <trkpt lat="60.005604010828" lon="23.427372027079">
        <ele>35</ele>
        <time>2014-05-13T19:09:19Z</time>
      </trkpt>
      <trkpt lat="60.005599316964" lon="23.427322992964">
        <ele>35</ele>
        <time>2014-05-13T19:09:20Z</time>
      </trkpt>
      <trkpt lat="60.0055610955" lon="23.427235653566">
        <ele>35</ele>
        <time>2014-05-13T19:09:24Z</time>
      </trkpt>
      <trkpt lat="60.005494124119" lon="23.427084863185">
        <ele>35</ele>
        <time>2014-05-13T19:09:42Z</time>
      </trkpt>
      <trkpt lat="60.005450035325" lon="23.426896018978">
        <ele>35</ele>
        <time>2014-05-13T19:09:46Z</time>
      </trkpt>
      <trkpt lat="60.005409802205" lon="23.426810104503">
        <ele>35</ele>
        <time>2014-05-13T19:09:49Z</time>
      </trkpt>
      <trkpt lat="60.005382477211" lon="23.426487401353">
        <ele>35</ele>
        <time>2014-05-13T19:09:54Z</time>
      </trkpt>
      <trkpt lat="60.005360348995" lon="23.42628145807">
        <ele>35</ele>
        <time>2014-05-13T19:09:57Z</time>
      </trkpt>
      <trkpt lat="60.005361522461" lon="23.426228903557">
        <ele>35</ele>
        <time>2014-05-13T19:09:59Z</time>
      </trkpt>
      <trkpt lat="60.005316511658" lon="23.425934698867">
        <ele>35</ele>
        <time>2014-05-13T19:10:04Z</time>
      </trkpt>
      <trkpt lat="60.005320451151" lon="23.425709393395">
        <ele>35</ele>
        <time>2014-05-13T19:10:09Z</time>
      </trkpt>
      <trkpt lat="60.005266974629" lon="23.425517112609">
        <ele>35</ele>
        <time>2014-05-13T19:10:13Z</time>
      </trkpt>
      <trkpt lat="60.005197488678" lon="23.425318461579">
        <ele>35</ele>
        <time>2014-05-13T19:10:16Z</time>
      </trkpt>
      <trkpt lat="60.005197404859" lon="23.425183764446">
        <ele>35</ele>
        <time>2014-05-13T19:10:19Z</time>
      </trkpt>
      <trkpt lat="60.005323217178" lon="23.425011097306">
        <ele>35</ele>
        <time>2014-05-13T19:10:24Z</time>
      </trkpt>
      <trkpt lat="60.005454310094" lon="23.424886458453">
        <ele>35</ele>
        <time>2014-05-13T19:10:28Z</time>
      </trkpt>
      <trkpt lat="60.005591354159" lon="23.424892744878">
        <ele>35</ele>
        <time>2014-05-13T19:10:33Z</time>
      </trkpt>
      <trkpt lat="60.005611135443" lon="23.424847817894">
        <ele>35</ele>
        <time>2014-05-13T19:10:34Z</time>
      </trkpt>
      <trkpt lat="60.005704090714" lon="23.424700967006">
        <ele>35</ele>
        <time>2014-05-13T19:10:39Z</time>
      </trkpt>
      <trkpt lat="60.005805344066" lon="23.424618153834">
        <ele>35.4</ele>
        <time>2014-05-13T19:10:42Z</time>
      </trkpt>
      <trkpt lat="60.0058125525" lon="23.424567443339">
        <ele>35.6</ele>
        <time>2014-05-13T19:10:44Z</time>
      </trkpt>
      <trkpt lat="60.005893773111" lon="23.424392848362">
        <ele>36</ele>
        <time>2014-05-13T19:10:48Z</time>
      </trkpt>
      <trkpt lat="60.00596091213" lon="23.42426896388">
        <ele>36.4</ele>
        <time>2014-05-13T19:10:51Z</time>
      </trkpt>
      <trkpt lat="60.00602461457" lon="23.423993283189">
        <ele>36.6</ele>
        <time>2014-05-13T19:10:57Z</time>
      </trkpt>
      <trkpt lat="60.006018076688" lon="23.423941483047">
        <ele>36.6</ele>
        <time>2014-05-13T19:10:58Z</time>
      </trkpt>
      <trkpt lat="60.005985554916" lon="23.423736964687">
        <ele>36.8</ele>
        <time>2014-05-13T19:11:02Z</time>
      </trkpt>
      <trkpt lat="60.005981950699" lon="23.423592628369">
        <ele>36.8</ele>
        <time>2014-05-13T19:11:04Z</time>
      </trkpt>
      <trkpt lat="60.005988488581" lon="23.42348525623">
        <ele>36.8</ele>
        <time>2014-05-13T19:11:06Z</time>
      </trkpt>
      <trkpt lat="60.005995780834" lon="23.423292304892">
        <ele>36.8</ele>
        <time>2014-05-13T19:11:09Z</time>
      </trkpt>
      <trkpt lat="60.006002402535" lon="23.423103376866">
        <ele>36.8</ele>
        <time>2014-05-13T19:11:12Z</time>
      </trkpt>
      <trkpt lat="60.006014472471" lon="23.422932218468">
        <ele>36.8</ele>
        <time>2014-05-13T19:11:16Z</time>
      </trkpt>
      <trkpt lat="60.00604221656" lon="23.422719234389">
        <ele>37</ele>
        <time>2014-05-13T19:11:20Z</time>
      </trkpt>
      <trkpt lat="60.0060723914" lon="23.422454869263">
        <ele>37</ele>
        <time>2014-05-13T19:11:25Z</time>
      </trkpt>
      <trkpt lat="60.006053699763" lon="23.422238700062">
        <ele>37</ele>
        <time>2014-05-13T19:11:29Z</time>
      </trkpt>
      <trkpt lat="60.005995780834" lon="23.422066452017">
        <ele>37</ele>
        <time>2014-05-13T19:11:32Z</time>
      </trkpt>
      <trkpt lat="60.005955463895" lon="23.422025548345">
        <ele>37</ele>
        <time>2014-05-13T19:11:35Z</time>
      </trkpt>
      <trkpt lat="60.005948926013" lon="23.42201088002">
        <ele>37</ele>
        <time>2014-05-13T19:11:36Z</time>
      </trkpt>
      <trkpt lat="60.00593576643" lon="23.421986740148">
        <ele>37</ele>
        <time>2014-05-13T19:11:40Z</time>
      </trkpt>
      <trkpt lat="60.005976251007" lon="23.421908872297">
        <ele>37</ele>
        <time>2014-05-13T19:11:42Z</time>
      </trkpt>
      <trkpt lat="60.006140117152" lon="23.421799739959">
        <ele>37</ele>
        <time>2014-05-13T19:11:48Z</time>
      </trkpt>
      <trkpt lat="60.00616040135" lon="23.421757327545">
        <ele>37</ele>
        <time>2014-05-13T19:11:49Z</time>
      </trkpt>
      <trkpt lat="60.006247740748" lon="23.42157250665">
        <ele>37</ele>
        <time>2014-05-13T19:11:53Z</time>
      </trkpt>
      <trkpt lat="60.006296691044" lon="23.421503607432">
        <ele>37</ele>
        <time>2014-05-13T19:11:55Z</time>
      </trkpt>
      <trkpt lat="60.006354107059" lon="23.421516934653">
        <ele>37.4</ele>
        <time>2014-05-13T19:11:57Z</time>
      </trkpt>
      <trkpt lat="60.006378163112" lon="23.421541158344">
        <ele>37.8</ele>
        <time>2014-05-13T19:12:00Z</time>
      </trkpt>
      <trkpt lat="60.006428119236" lon="23.421566136406">
        <ele>38.2</ele>
        <time>2014-05-13T19:12:03Z</time>
      </trkpt>
      <trkpt lat="60.006440775905" lon="23.421563454198">
        <ele>38.2</ele>
        <time>2014-05-13T19:12:04Z</time>
      </trkpt>
      <trkpt lat="60.006476315161" lon="23.421537470308">
        <ele>38.6</ele>
        <time>2014-05-13T19:12:10Z</time>
      </trkpt>
      <trkpt lat="60.006491821676" lon="23.421496315179">
        <ele>38.6</ele>
        <time>2014-05-13T19:12:12Z</time>
      </trkpt>
      <trkpt lat="60.006541945438" lon="23.421345189522">
        <ele>39.4</ele>
        <time>2014-05-13T19:12:16Z</time>
      </trkpt>
      <trkpt lat="60.006585196042" lon="23.421227675284">
        <ele>39.8</ele>
        <time>2014-05-13T19:12:19Z</time>
      </trkpt>
      <trkpt lat="60.00665660983" lon="23.42104779971">
        <ele>40.4</ele>
        <time>2014-05-13T19:12:24Z</time>
      </trkpt>
      <trkpt lat="60.006758198458" lon="23.420876557493">
        <ele>40.6</ele>
        <time>2014-05-13T19:12:29Z</time>
      </trkpt>
      <trkpt lat="60.006826510943" lon="23.420772705752">
        <ele>40.8</ele>
        <time>2014-05-13T19:12:33Z</time>
      </trkpt>
      <trkpt lat="60.006953161452" lon="23.42090111646">
        <ele>40.8</ele>
        <time>2014-05-13T19:12:38Z</time>
      </trkpt>
      <trkpt lat="60.007014349322" lon="23.421025084761">
        <ele>41.2</ele>
        <time>2014-05-13T19:12:42Z</time>
      </trkpt>
      <trkpt lat="60.007085092558" lon="23.421174785495">
        <ele>41.6</ele>
        <time>2014-05-13T19:12:45Z</time>
      </trkpt>
      <trkpt lat="60.007206630108" lon="23.421413418188">
        <ele>42.4</ele>
        <time>2014-05-13T19:12:51Z</time>
      </trkpt>
      <trkpt lat="60.007242923735" lon="23.421511402599">
        <ele>42.4</ele>
        <time>2014-05-13T19:12:52Z</time>
      </trkpt>
      <trkpt lat="60.007293550411" lon="23.421603184404">
        <ele>43</ele>
        <time>2014-05-13T19:12:56Z</time>
      </trkpt>
      <trkpt lat="60.007359935059" lon="23.421490866944">
        <ele>43.8</ele>
        <time>2014-05-13T19:13:00Z</time>
      </trkpt>
      <trkpt lat="60.007390528994" lon="23.421445520865">
        <ele>44</ele>
        <time>2014-05-13T19:13:02Z</time>
      </trkpt>
      <trkpt lat="60.007489016319" lon="23.421312751569">
        <ele>44.4</ele>
        <time>2014-05-13T19:13:07Z</time>
      </trkpt>
      <trkpt lat="60.007582390685" lon="23.421179227902">
        <ele>44.8</ele>
        <time>2014-05-13T19:13:12Z</time>
      </trkpt>
      <trkpt lat="60.007603513073" lon="23.421172941477">
        <ele>44.8</ele>
        <time>2014-05-13T19:13:13Z</time>
      </trkpt>
      <trkpt lat="60.007739802767" lon="23.421275368295">
        <ele>45</ele>
        <time>2014-05-13T19:13:19Z</time>
      </trkpt>
      <trkpt lat="60.007780957896" lon="23.421403527546">
        <ele>45</ele>
        <time>2014-05-13T19:13:22Z</time>
      </trkpt>
      <trkpt lat="60.007791183814" lon="23.421437809517">
        <ele>45</ele>
        <time>2014-05-13T19:13:24Z</time>
      </trkpt>
      <trkpt lat="60.007810462184" lon="23.421688093051">
        <ele>45.4</ele>
        <time>2014-05-13T19:13:30Z</time>
      </trkpt>
      <trkpt lat="60.007794955669" lon="23.421755902622">
        <ele>45.8</ele>
        <time>2014-05-13T19:13:31Z</time>
      </trkpt>
      <trkpt lat="60.007798895162" lon="23.421964192837">
        <ele>46.4</ele>
        <time>2014-05-13T19:13:37Z</time>
      </trkpt>
      <trkpt lat="60.00778146081" lon="23.422043820887">
        <ele>46.6</ele>
        <time>2014-05-13T19:13:40Z</time>
      </trkpt>
      <trkpt lat="60.007780203525" lon="23.42215923965">
        <ele>46.8</ele>
        <time>2014-05-13T19:13:45Z</time>
      </trkpt>
      <trkpt lat="60.007755309282" lon="23.422368535693">
        <ele>47</ele>
        <time>2014-05-13T19:13:50Z</time>
      </trkpt>
      <trkpt lat="60.007771737806" lon="23.422521756825">
        <ele>47</ele>
        <time>2014-05-13T19:13:52Z</time>
      </trkpt>
      <trkpt lat="60.007833093314" lon="23.422644300203">
        <ele>47</ele>
        <time>2014-05-13T19:13:57Z</time>
      </trkpt>
      <trkpt lat="60.007896209021" lon="23.422789307073">
        <ele>47.2</ele>
        <time>2014-05-13T19:14:01Z</time>
      </trkpt>
      <trkpt lat="60.007931161544" lon="23.422853093332">
        <ele>47.2</ele>
        <time>2014-05-13T19:14:02Z</time>
      </trkpt>
      <trkpt lat="60.008043395185" lon="23.422882765258">
        <ele>47.2</ele>
        <time>2014-05-13T19:14:07Z</time>
      </trkpt>
      <trkpt lat="60.008134422619" lon="23.42298150404">
        <ele>47.2</ele>
        <time>2014-05-13T19:14:12Z</time>
      </trkpt>
      <trkpt lat="60.00816032269" lon="23.423264560803">
        <ele>47.2</ele>
        <time>2014-05-13T19:14:17Z</time>
      </trkpt>
      <trkpt lat="60.008196532498" lon="23.423577624768">
        <ele>47.2</ele>
        <time>2014-05-13T19:14:22Z</time>
      </trkpt>
      <trkpt lat="60.008227461709" lon="23.423785998802">
        <ele>47.2</ele>
        <time>2014-05-13T19:14:27Z</time>
      </trkpt>
      <trkpt lat="60.008255624893" lon="23.423916840261">
        <ele>47.2</ele>
        <time>2014-05-13T19:14:31Z</time>
      </trkpt>
      <trkpt lat="60.008272053417" lon="23.42398481747">
        <ele>47.2</ele>
        <time>2014-05-13T19:14:33Z</time>
      </trkpt>
      <trkpt lat="60.008256043988" lon="23.424364349902">
        <ele>47.2</ele>
        <time>2014-05-13T19:14:38Z</time>
      </trkpt>
      <trkpt lat="60.008253948513" lon="23.424618237653">
        <ele>47.2</ele>
        <time>2014-05-13T19:14:42Z</time>
      </trkpt>
      <trkpt lat="60.008231820297" lon="23.424673474374">
        <ele>47.2</ele>
        <time>2014-05-13T19:14:44Z</time>
      </trkpt>
      <trkpt lat="60.00818546839" lon="23.424812697733">
        <ele>47.2</ele>
        <time>2014-05-13T19:14:47Z</time>
      </trkpt>
      <trkpt lat="60.008119838113" lon="23.425076224669">
        <ele>47.2</ele>
        <time>2014-05-13T19:14:52Z</time>
      </trkpt>
      <trkpt lat="60.008063427926" lon="23.425217292046">
        <ele>47.2</ele>
        <time>2014-05-13T19:14:56Z</time>
      </trkpt>
      <trkpt lat="60.007981033849" lon="23.425438155111">
        <ele>47.2</ele>
        <time>2014-05-13T19:15:01Z</time>
      </trkpt>
      <trkpt lat="60.007914062468" lon="23.425650803914">
        <ele>47.2</ele>
        <time>2014-05-13T19:15:04Z</time>
      </trkpt>
      <trkpt lat="60.007861507955" lon="23.425870409694">
        <ele>46.8</ele>
        <time>2014-05-13T19:15:10Z</time>
      </trkpt>
      <trkpt lat="60.007872069149" lon="23.425990857597">
        <ele>46.2</ele>
        <time>2014-05-13T19:15:14Z</time>
      </trkpt>
      <trkpt lat="60.007857233186" lon="23.426133601354">
        <ele>46</ele>
        <time>2014-05-13T19:15:17Z</time>
      </trkpt>
      <trkpt lat="60.007867626742" lon="23.426326468873">
        <ele>45.6</ele>
        <time>2014-05-13T19:15:21Z</time>
      </trkpt>
      <trkpt lat="60.007888330035" lon="23.426525287541">
        <ele>45.6</ele>
        <time>2014-05-13T19:15:25Z</time>
      </trkpt>
      <trkpt lat="60.00789377827" lon="23.426575411303">
        <ele>45.4</ele>
        <time>2014-05-13T19:15:26Z</time>
      </trkpt>
      <trkpt lat="60.007930490992" lon="23.426749587185">
        <ele>45.4</ele>
        <time>2014-05-13T19:15:30Z</time>
      </trkpt>
      <trkpt lat="60.00795412795" lon="23.426803734259">
        <ele>45.4</ele>
        <time>2014-05-13T19:15:31Z</time>
      </trkpt>
      <trkpt lat="60.007988661378" lon="23.426842710094">
        <ele>45.4</ele>
        <time>2014-05-13T19:15:33Z</time>
      </trkpt>
      <trkpt lat="60.008074911129" lon="23.427069859584">
        <ele>45.2</ele>
        <time>2014-05-13T19:15:38Z</time>
      </trkpt>
      <trkpt lat="60.008113886964" lon="23.427237497584">
        <ele>45.2</ele>
        <time>2014-05-13T19:15:42Z</time>
      </trkpt>
      <trkpt lat="60.008098548087" lon="23.427393400924">
        <ele>45.2</ele>
        <time>2014-05-13T19:15:46Z</time>
      </trkpt>
      <trkpt lat="60.008097374621" lon="23.427390131983">
        <ele>45.2</ele>
        <time>2014-05-13T19:15:47Z</time>
      </trkpt>
      <trkpt lat="60.008165268011" lon="23.427338499479">
        <ele>45.2</ele>
        <time>2014-05-13T19:15:52Z</time>
      </trkpt>
      <trkpt lat="60.008228551356" lon="23.427352413433">
        <ele>45.2</ele>
        <time>2014-05-13T19:15:56Z</time>
      </trkpt>
      <trkpt lat="60.008255373436" lon="23.427399352073">
        <ele>45.2</ele>
        <time>2014-05-13T19:15:57Z</time>
      </trkpt>
      <trkpt lat="60.008284961543" lon="23.427479818313">
        <ele>45.2</ele>
        <time>2014-05-13T19:16:00Z</time>
      </trkpt>
      <trkpt lat="60.008376910986" lon="23.427565481331">
        <ele>45.4</ele>
        <time>2014-05-13T19:16:04Z</time>
      </trkpt>
      <trkpt lat="60.008456706674" lon="23.427663465742">
        <ele>46</ele>
        <time>2014-05-13T19:16:07Z</time>
      </trkpt>
      <trkpt lat="60.008545722452" lon="23.427716858445">
        <ele>46.4</ele>
        <time>2014-05-13T19:16:12Z</time>
      </trkpt>
      <trkpt lat="60.008596935861" lon="23.427776621392">
        <ele>46.6</ele>
        <time>2014-05-13T19:16:15Z</time>
      </trkpt>
      <trkpt lat="60.008676899187" lon="23.427932608551">
        <ele>46.8</ele>
        <time>2014-05-13T19:16:19Z</time>
      </trkpt>
      <trkpt lat="60.008761137282" lon="23.428054732834">
        <ele>47.4</ele>
        <time>2014-05-13T19:16:22Z</time>
      </trkpt>
      <trkpt lat="60.00877890691" lon="23.428088092796">
        <ele>47.6</ele>
        <time>2014-05-13T19:16:24Z</time>
      </trkpt>
      <trkpt lat="60.008838250762" lon="23.428263525963">
        <ele>48.2</ele>
        <time>2014-05-13T19:16:27Z</time>
      </trkpt>
      <trkpt lat="60.008853254363" lon="23.428473408739">
        <ele>48.6</ele>
        <time>2014-05-13T19:16:32Z</time>
      </trkpt>
      <trkpt lat="60.008859540788" lon="23.428492435652">
        <ele>48.6</ele>
        <time>2014-05-13T19:16:33Z</time>
      </trkpt>
      <trkpt lat="60.008895750596" lon="23.428602573818">
        <ele>48.8</ele>
        <time>2014-05-13T19:16:37Z</time>
      </trkpt>
      <trkpt lat="60.008880160262" lon="23.428709023948">
        <ele>49</ele>
        <time>2014-05-13T19:16:40Z</time>
      </trkpt>
      <trkpt lat="60.008893068388" lon="23.428701228781">
        <ele>49</ele>
        <time>2014-05-13T19:16:42Z</time>
      </trkpt>
      <trkpt lat="60.008913436405" lon="23.428693685071">
        <ele>49</ele>
        <time>2014-05-13T19:16:45Z</time>
      </trkpt>
      <trkpt lat="60.008970433325" lon="23.428841877063">
        <ele>49.2</ele>
        <time>2014-05-13T19:16:49Z</time>
      </trkpt>
      <trkpt lat="60.009000775803" lon="23.428935838162">
        <ele>49.2</ele>
        <time>2014-05-13T19:16:51Z</time>
      </trkpt>
      <trkpt lat="60.009067747184" lon="23.429182936574">
        <ele>49.2</ele>
        <time>2014-05-13T19:16:57Z</time>
      </trkpt>
      <trkpt lat="60.009129689425" lon="23.42934168976">
        <ele>49.2</ele>
        <time>2014-05-13T19:17:01Z</time>
      </trkpt>
      <trkpt lat="60.00923320589" lon="23.429542603903">
        <ele>48.6</ele>
        <time>2014-05-13T19:17:07Z</time>
      </trkpt>
      <trkpt lat="60.009243683265" lon="23.429550315251">
        <ele>48.6</ele>
        <time>2014-05-13T19:17:08Z</time>
      </trkpt>
      <trkpt lat="60.009279138702" lon="23.429545537568">
        <ele>48</ele>
        <time>2014-05-13T19:17:12Z</time>
      </trkpt>
      <trkpt lat="60.009358850571" lon="23.429641175047">
        <ele>47.2</ele>
        <time>2014-05-13T19:17:18Z</time>
      </trkpt>
      <trkpt lat="60.009419870803" lon="23.429742176942">
        <ele>46.4</ele>
        <time>2014-05-13T19:17:23Z</time>
      </trkpt>
      <trkpt lat="60.009513580445" lon="23.429788361211">
        <ele>46</ele>
        <time>2014-05-13T19:17:27Z</time>
      </trkpt>
      <trkpt lat="60.009608212096" lon="23.429845106674">
        <ele>45.6</ele>
        <time>2014-05-13T19:17:33Z</time>
      </trkpt>
      <trkpt lat="60.009722457393" lon="23.429849884357">
        <ele>44.6</ele>
        <time>2014-05-13T19:17:39Z</time>
      </trkpt>
      <trkpt lat="60.009765121264" lon="23.429849549081">
        <ele>44.4</ele>
        <time>2014-05-13T19:17:41Z</time>
      </trkpt>
      <trkpt lat="60.009860591105" lon="23.429903444698">
        <ele>43.8</ele>
        <time>2014-05-13T19:17:46Z</time>
      </trkpt>
      <trkpt lat="60.009870817023" lon="23.429907132734">
        <ele>43.8</ele>
        <time>2014-05-13T19:17:47Z</time>
      </trkpt>
      <trkpt lat="60.009886323538" lon="23.429905288716">
        <ele>43.8</ele>
        <time>2014-05-13T19:17:48Z</time>
      </trkpt>
      <trkpt lat="60.009968885253" lon="23.429934541547">
        <ele>43.4</ele>
        <time>2014-05-13T19:17:53Z</time>
      </trkpt>
      <trkpt lat="60.010034850806" lon="23.429966895681">
        <ele>43.4</ele>
        <time>2014-05-13T19:17:57Z</time>
      </trkpt>
      <trkpt lat="60.010089500794" lon="23.429974942305">
        <ele>43</ele>
        <time>2014-05-13T19:18:01Z</time>
      </trkpt>
      <trkpt lat="60.010123196032" lon="23.429968991156">
        <ele>42.6</ele>
        <time>2014-05-13T19:18:03Z</time>
      </trkpt>
      <trkpt lat="60.010207685584" lon="23.429902606508">
        <ele>42.2</ele>
        <time>2014-05-13T19:18:07Z</time>
      </trkpt>
      <trkpt lat="60.010318242845" lon="23.429877796084">
        <ele>41.8</ele>
        <time>2014-05-13T19:18:12Z</time>
      </trkpt>
      <trkpt lat="60.010331067152" lon="23.429873521315">
        <ele>41.6</ele>
        <time>2014-05-13T19:18:13Z</time>
      </trkpt>
      <trkpt lat="60.010405582243" lon="23.429839993715">
        <ele>41.4</ele>
        <time>2014-05-13T19:18:16Z</time>
      </trkpt>
      <trkpt lat="60.010451515055" lon="23.429914676444">
        <ele>41.4</ele>
        <time>2014-05-13T19:18:21Z</time>
      </trkpt>
      <trkpt lat="60.010469284683" lon="23.429924902362">
        <ele>41.4</ele>
        <time>2014-05-13T19:18:22Z</time>
      </trkpt>
      <trkpt lat="60.010487054311" lon="23.429916604281">
        <ele>41.2</ele>
        <time>2014-05-13T19:18:24Z</time>
      </trkpt>
      <trkpt lat="60.010560731212" lon="23.429902522689">
        <ele>41.2</ele>
        <time>2014-05-13T19:18:28Z</time>
      </trkpt>
      <trkpt lat="60.010586798921" lon="23.42991836448">
        <ele>41.2</ele>
        <time>2014-05-13T19:18:29Z</time>
      </trkpt>
      <trkpt lat="60.010690985938" lon="23.430012325579">
        <ele>41.2</ele>
        <time>2014-05-13T19:18:35Z</time>
      </trkpt>
      <trkpt lat="60.010766674495" lon="23.430082733539">
        <ele>41.2</ele>
        <time>2014-05-13T19:18:38Z</time>
      </trkpt>
      <trkpt lat="60.010890056063" lon="23.430263447303">
        <ele>41.2</ele>
        <time>2014-05-13T19:18:44Z</time>
      </trkpt>
      <trkpt lat="60.010985693542" lon="23.430470480233">
        <ele>41.2</ele>
        <time>2014-05-13T19:18:49Z</time>
      </trkpt>
      <trkpt lat="60.011018466771" lon="23.430524962583">
        <ele>41.2</ele>
        <time>2014-05-13T19:18:51Z</time>
      </trkpt>
      <trkpt lat="60.01107890027" lon="23.430670975281">
        <ele>41.2</ele>
        <time>2014-05-13T19:18:56Z</time>
      </trkpt>
      <trkpt lat="60.01110069321" lon="23.43070123394">
        <ele>41.2</ele>
        <time>2014-05-13T19:18:58Z</time>
      </trkpt>
      <trkpt lat="60.011121564141" lon="23.430969035645">
        <ele>41.2</ele>
        <time>2014-05-13T19:19:03Z</time>
      </trkpt>
      <trkpt lat="60.011152409533" lon="23.431069953721">
        <ele>41.2</ele>
        <time>2014-05-13T19:19:06Z</time>
      </trkpt>
      <trkpt lat="60.01119624687" lon="23.431191407452">
        <ele>41.2</ele>
        <time>2014-05-13T19:19:10Z</time>
      </trkpt>
      <trkpt lat="60.011231869945" lon="23.431217391342">
        <ele>41.2</ele>
        <time>2014-05-13T19:19:12Z</time>
      </trkpt>
      <trkpt lat="60.011285346467" lon="23.431244464879">
        <ele>41.2</ele>
        <time>2014-05-13T19:19:16Z</time>
      </trkpt>
      <trkpt lat="60.011358352816" lon="23.431287296388">
        <ele>41.2</ele>
        <time>2014-05-13T19:19:20Z</time>
      </trkpt>
      <trkpt lat="60.011454577028" lon="23.431332474829">
        <ele>41.2</ele>
        <time>2014-05-13T19:19:24Z</time>
      </trkpt>
      <trkpt lat="60.011493049949" lon="23.431320153436">
        <ele>41.2</ele>
        <time>2014-05-13T19:19:26Z</time>
      </trkpt>
      <trkpt lat="60.011563290271" lon="23.431387627731">
        <ele>41.2</ele>
        <time>2014-05-13T19:19:30Z</time>
      </trkpt>
      <trkpt lat="60.011651048764" lon="23.431328870612">
        <ele>41.2</ele>
        <time>2014-05-13T19:19:36Z</time>
      </trkpt>
      <trkpt lat="60.011701340164" lon="23.431383017686">
        <ele>41.2</ele>
        <time>2014-05-13T19:19:40Z</time>
      </trkpt>
      <trkpt lat="60.011756660704" lon="23.431402296056">
        <ele>41.2</ele>
        <time>2014-05-13T19:19:44Z</time>
      </trkpt>
      <trkpt lat="60.011746267148" lon="23.431419395132">
        <ele>40.4</ele>
        <time>2014-05-13T19:19:49Z</time>
      </trkpt>
      <trkpt lat="60.011727072597" lon="23.431426603566">
        <ele>40.2</ele>
        <time>2014-05-13T19:19:50Z</time>
      </trkpt>
      <trkpt lat="60.011704022372" lon="23.431391483405">
        <ele>39.8</ele>
        <time>2014-05-13T19:19:53Z</time>
      </trkpt>
      <trkpt lat="60.011630010195" lon="23.431290732967">
        <ele>39.6</ele>
        <time>2014-05-13T19:19:58Z</time>
      </trkpt>
      <trkpt lat="60.011624059046" lon="23.431250583666">
        <ele>39.2</ele>
        <time>2014-05-13T19:19:59Z</time>
      </trkpt>
      <trkpt lat="60.011659095388" lon="23.43122007355">
        <ele>38.6</ele>
        <time>2014-05-13T19:20:02Z</time>
      </trkpt>
      <trkpt lat="60.01172765933" lon="23.431163411906">
        <ele>38</ele>
        <time>2014-05-13T19:20:06Z</time>
      </trkpt>
      <trkpt lat="60.011799995127" lon="23.431069618445">
        <ele>37.6</ele>
        <time>2014-05-13T19:20:10Z</time>
      </trkpt>
      <trkpt lat="60.011814495814" lon="23.431054698663">
        <ele>37.6</ele>
        <time>2014-05-13T19:20:11Z</time>
      </trkpt>
      <trkpt lat="60.011931926233" lon="23.430893430907">
        <ele>37.4</ele>
        <time>2014-05-13T19:20:16Z</time>
      </trkpt>
      <trkpt lat="60.011939637581" lon="23.430909775612">
        <ele>37.4</ele>
        <time>2014-05-13T19:20:17Z</time>
      </trkpt>
      <trkpt lat="60.01198079271" lon="23.430807600251">
        <ele>37.2</ele>
        <time>2014-05-13T19:20:20Z</time>
      </trkpt>
      <trkpt lat="60.012089086858" lon="23.430664269761">
        <ele>37.2</ele>
        <time>2014-05-13T19:20:24Z</time>
      </trkpt>
      <trkpt lat="60.012159830094" lon="23.430509707525">
        <ele>37</ele>
        <time>2014-05-13T19:20:28Z</time>
      </trkpt>
      <trkpt lat="60.012229232226" lon="23.430327652657">
        <ele>37</ele>
        <time>2014-05-13T19:20:33Z</time>
      </trkpt>
      <trkpt lat="60.012232165891" lon="23.430312900513">
        <ele>37</ele>
        <time>2014-05-13T19:20:34Z</time>
      </trkpt>
      <trkpt lat="60.01224649894" lon="23.430269482271">
        <ele>37</ele>
        <time>2014-05-13T19:20:35Z</time>
      </trkpt>
      <trkpt lat="60.012324115334" lon="23.430139898097">
        <ele>37</ele>
        <time>2014-05-13T19:20:39Z</time>
      </trkpt>
      <trkpt lat="60.012333083967" lon="23.430107627782">
        <ele>37</ele>
        <time>2014-05-13T19:20:40Z</time>
      </trkpt>
      <trkpt lat="60.012354122536" lon="23.430036884546">
        <ele>37</ele>
        <time>2014-05-13T19:20:42Z</time>
      </trkpt>
      <trkpt lat="60.012440875201" lon="23.429934457728">
        <ele>37</ele>
        <time>2014-05-13T19:20:46Z</time>
      </trkpt>
      <trkpt lat="60.012458980105" lon="23.429920208498">
        <ele>37</ele>
        <time>2014-05-13T19:20:47Z</time>
      </trkpt>
      <trkpt lat="60.012487813841" lon="23.429885926527">
        <ele>37</ele>
        <time>2014-05-13T19:20:49Z</time>
      </trkpt>
      <trkpt lat="60.012545900408" lon="23.429705296582">
        <ele>37</ele>
        <time>2014-05-13T19:20:53Z</time>
      </trkpt>
      <trkpt lat="60.01258428951" lon="23.429537910039">
        <ele>37</ele>
        <time>2014-05-13T19:20:57Z</time>
      </trkpt>
      <trkpt lat="60.012649249235" lon="23.429400782155">
        <ele>37</ele>
        <time>2014-05-13T19:21:01Z</time>
      </trkpt>
      <trkpt lat="60.012694846771" lon="23.429241861331">
        <ele>37</ele>
        <time>2014-05-13T19:21:06Z</time>
      </trkpt>
      <trkpt lat="60.012698702445" lon="23.429196599071">
        <ele>37</ele>
        <time>2014-05-13T19:21:07Z</time>
      </trkpt>
      <trkpt lat="60.012753855347" lon="23.42893852037">
        <ele>37</ele>
        <time>2014-05-13T19:21:13Z</time>
      </trkpt>
      <trkpt lat="60.012837758166" lon="23.42873064925">
        <ele>37</ele>
        <time>2014-05-13T19:21:18Z</time>
      </trkpt>
      <trkpt lat="60.012839518365" lon="23.428668287914">
        <ele>37</ele>
        <time>2014-05-13T19:21:19Z</time>
      </trkpt>
      <trkpt lat="60.012864664065" lon="23.428490340177">
        <ele>37</ele>
        <time>2014-05-13T19:21:23Z</time>
      </trkpt>
      <trkpt lat="60.012884277711" lon="23.4282822176">
        <ele>37</ele>
        <time>2014-05-13T19:21:27Z</time>
      </trkpt>
      <trkpt lat="60.01288771429" lon="23.42825623371">
        <ele>37</ele>
        <time>2014-05-13T19:21:28Z</time>
      </trkpt>
      <trkpt lat="60.012834489225" lon="23.428135115255">
        <ele>37</ele>
        <time>2014-05-13T19:21:31Z</time>
      </trkpt>
      <trkpt lat="60.012847816446" lon="23.428104688958">
        <ele>37</ele>
        <time>2014-05-13T19:21:32Z</time>
      </trkpt>
      <trkpt lat="60.012871118128" lon="23.427964459771">
        <ele>37</ele>
        <time>2014-05-13T19:21:37Z</time>
      </trkpt>
      <trkpt lat="60.012867430092" lon="23.427951551645">
        <ele>37</ele>
        <time>2014-05-13T19:21:38Z</time>
      </trkpt>
      <trkpt lat="60.012954601852" lon="23.427950964912">
        <ele>37</ele>
        <time>2014-05-13T19:21:42Z</time>
      </trkpt>
      <trkpt lat="60.013039678137" lon="23.42780361111">
        <ele>37</ele>
        <time>2014-05-13T19:21:48Z</time>
      </trkpt>
      <trkpt lat="60.013060465249" lon="23.427776537573">
        <ele>37</ele>
        <time>2014-05-13T19:21:49Z</time>
      </trkpt>
      <trkpt lat="60.01308385075" lon="23.427695568419">
        <ele>37</ele>
        <time>2014-05-13T19:21:52Z</time>
      </trkpt>
      <trkpt lat="60.013163897895" lon="23.427725240345">
        <ele>37</ele>
        <time>2014-05-13T19:21:57Z</time>
      </trkpt>
      <trkpt lat="60.013240759918" lon="23.427723312508">
        <ele>37</ele>
        <time>2014-05-13T19:22:01Z</time>
      </trkpt>
      <trkpt lat="60.013306138738" lon="23.427635721653">
        <ele>37</ele>
        <time>2014-05-13T19:22:05Z</time>
      </trkpt>
      <trkpt lat="60.013336229759" lon="23.427633793816">
        <ele>37</ele>
        <time>2014-05-13T19:22:06Z</time>
      </trkpt>
      <trkpt lat="60.013379480363" lon="23.427643684458">
        <ele>37</ele>
        <time>2014-05-13T19:22:08Z</time>
      </trkpt>
      <trkpt lat="60.013480146982" lon="23.427629519047">
        <ele>37.8</ele>
        <time>2014-05-13T19:22:13Z</time>
      </trkpt>
      <trkpt lat="60.013596403935" lon="23.427620634233">
        <ele>38.4</ele>
        <time>2014-05-13T19:22:18Z</time>
      </trkpt>
      <trkpt lat="60.013620376169" lon="23.427613090523">
        <ele>38.4</ele>
        <time>2014-05-13T19:22:19Z</time>
      </trkpt>
      <trkpt lat="60.01374769723" lon="23.427572522127">
        <ele>38.8</ele>
        <time>2014-05-13T19:22:24Z</time>
      </trkpt>
      <trkpt lat="60.013832773515" lon="23.42758232895">
        <ele>39.6</ele>
        <time>2014-05-13T19:22:28Z</time>
      </trkpt>
      <trkpt lat="60.01393712817" lon="23.427548130798">
        <ele>40.2</ele>
        <time>2014-05-13T19:22:33Z</time>
      </trkpt>
      <trkpt lat="60.014107699835" lon="23.427368003767">
        <ele>40.8</ele>
        <time>2014-05-13T19:22:42Z</time>
      </trkpt>
      <trkpt lat="60.014127900214" lon="23.427319891661">
        <ele>40.8</ele>
        <time>2014-05-13T19:22:44Z</time>
      </trkpt>
      <trkpt lat="60.014191602654" lon="23.427174214239">
        <ele>41</ele>
        <time>2014-05-13T19:22:48Z</time>
      </trkpt>
      <trkpt lat="60.014204091685" lon="23.427129622531">
        <ele>41</ele>
        <time>2014-05-13T19:22:50Z</time>
      </trkpt>
      <trkpt lat="60.014215993983" lon="23.427094167094">
        <ele>41</ele>
        <time>2014-05-13T19:22:51Z</time>
      </trkpt>
      <trkpt lat="60.014247845203" lon="23.42684555994">
        <ele>41</ele>
        <time>2014-05-13T19:22:57Z</time>
      </trkpt>
      <trkpt lat="60.014277600948" lon="23.426636934449">
        <ele>41</ele>
        <time>2014-05-13T19:23:02Z</time>
      </trkpt>
      <trkpt lat="60.014321103009" lon="23.426599886451">
        <ele>41.2</ele>
        <time>2014-05-13T19:23:05Z</time>
      </trkpt>
      <trkpt lat="60.014377429377" lon="23.426561832625">
        <ele>41.2</ele>
        <time>2014-05-13T19:23:07Z</time>
      </trkpt>
      <trkpt lat="60.014501984411" lon="23.426509529569">
        <ele>41.2</ele>
        <time>2014-05-13T19:23:12Z</time>
      </trkpt>
      <trkpt lat="60.014521598057" lon="23.426503746058">
        <ele>41.2</ele>
        <time>2014-05-13T19:23:13Z</time>
      </trkpt>
      <trkpt lat="60.014614050414" lon="23.426396625376">
        <ele>41.2</ele>
        <time>2014-05-13T19:23:18Z</time>
      </trkpt>
      <trkpt lat="60.014648332385" lon="23.426309872711">
        <ele>41.2</ele>
        <time>2014-05-13T19:23:20Z</time>
      </trkpt>
      <trkpt lat="60.014723769485" lon="23.426197555251">
        <ele>41.2</ele>
        <time>2014-05-13T19:23:24Z</time>
      </trkpt>
      <trkpt lat="60.014850503813" lon="23.426089177284">
        <ele>41.2</ele>
        <time>2014-05-13T19:23:30Z</time>
      </trkpt>
      <trkpt lat="60.014890736933" lon="23.426045172309">
        <ele>41.2</ele>
        <time>2014-05-13T19:23:32Z</time>
      </trkpt>
      <trkpt lat="60.014921666144" lon="23.425950959753">
        <ele>41.2</ele>
        <time>2014-05-13T19:23:35Z</time>
      </trkpt>
      <trkpt lat="60.014956702486" lon="23.425803438313">
        <ele>41.2</ele>
        <time>2014-05-13T19:23:39Z</time>
      </trkpt>
      <trkpt lat="60.015019818193" lon="23.425674105596">
        <ele>41.2</ele>
        <time>2014-05-13T19:23:44Z</time>
      </trkpt>
      <trkpt lat="60.015080000235" lon="23.425508479252">
        <ele>41.2</ele>
        <time>2014-05-13T19:23:49Z</time>
      </trkpt>
      <trkpt lat="60.015099362424" lon="23.425453996902">
        <ele>41.2</ele>
        <time>2014-05-13T19:23:51Z</time>
      </trkpt>
      <trkpt lat="60.015106822315" lon="23.425267080532">
        <ele>41.2</ele>
        <time>2014-05-13T19:23:55Z</time>
      </trkpt>
      <trkpt lat="60.015131716558" lon="23.425130874657">
        <ele>41.6</ele>
        <time>2014-05-13T19:23:58Z</time>
      </trkpt>
      <trkpt lat="60.015170692393" lon="23.425049067313">
        <ele>42</ele>
        <time>2014-05-13T19:24:02Z</time>
      </trkpt>
      <trkpt lat="60.015211596065" lon="23.42488335715">
        <ele>42.6</ele>
        <time>2014-05-13T19:24:07Z</time>
      </trkpt>
      <trkpt lat="60.01521033878" lon="23.424856618889">
        <ele>42.6</ele>
        <time>2014-05-13T19:24:08Z</time>
      </trkpt>
      <trkpt lat="60.015211344608" lon="23.424827282239">
        <ele>42.6</ele>
        <time>2014-05-13T19:24:10Z</time>
      </trkpt>
      <trkpt lat="60.015262390379" lon="23.424740361936">
        <ele>42.8</ele>
        <time>2014-05-13T19:24:14Z</time>
      </trkpt>
      <trkpt lat="60.015292146124" lon="23.424646568475">
        <ele>43</ele>
        <time>2014-05-13T19:24:16Z</time>
      </trkpt>
      <trkpt lat="60.015345622646" lon="23.424386142842">
        <ele>43</ele>
        <time>2014-05-13T19:24:22Z</time>
      </trkpt>
      <trkpt lat="60.015382670644" lon="23.424151952556">
        <ele>43</ele>
        <time>2014-05-13T19:24:27Z</time>
      </trkpt>
      <trkpt lat="60.015396836055" lon="23.424067043909">
        <ele>43</ele>
        <time>2014-05-13T19:24:29Z</time>
      </trkpt>
      <trkpt lat="60.015431118026" lon="23.423898735357">
        <ele>43.2</ele>
        <time>2014-05-13T19:24:33Z</time>
      </trkpt>
      <trkpt lat="60.015491216249" lon="23.423777197807">
        <ele>43.4</ele>
        <time>2014-05-13T19:24:38Z</time>
      </trkpt>
      <trkpt lat="60.015553577585" lon="23.423769151183">
        <ele>44</ele>
        <time>2014-05-13T19:24:43Z</time>
      </trkpt>
      <trkpt lat="60.01558417152" lon="23.423778287454">
        <ele>44</ele>
        <time>2014-05-13T19:24:44Z</time>
      </trkpt>
      <trkpt lat="60.015602024967" lon="23.423767810079">
        <ele>44.2</ele>
        <time>2014-05-13T19:24:45Z</time>
      </trkpt>
      <trkpt lat="60.015659524801" lon="23.423696815386">
        <ele>44.6</ele>
        <time>2014-05-13T19:24:50Z</time>
      </trkpt>
      <trkpt lat="60.0157031945" lon="23.423670999134">
        <ele>45.2</ele>
        <time>2014-05-13T19:24:53Z</time>
      </trkpt>
      <trkpt lat="60.015795227762" lon="23.423619869544">
        <ele>46</ele>
        <time>2014-05-13T19:24:58Z</time>
      </trkpt>
      <trkpt lat="60.015818361806" lon="23.423621713562">
        <ele>46.2</ele>
        <time>2014-05-13T19:24:59Z</time>
      </trkpt>
      <trkpt lat="60.015886087558" lon="23.423702515078">
        <ele>46.6</ele>
        <time>2014-05-13T19:25:03Z</time>
      </trkpt>
      <trkpt lat="60.015935540768" lon="23.423729840072">
        <ele>46.6</ele>
        <time>2014-05-13T19:25:05Z</time>
      </trkpt>
      <trkpt lat="60.01600326652" lon="23.423799242204">
        <ele>46.8</ele>
        <time>2014-05-13T19:25:08Z</time>
      </trkpt>
      <trkpt lat="60.016034531007" lon="23.423873924933">
        <ele>47.2</ele>
        <time>2014-05-13T19:25:10Z</time>
      </trkpt>
      <trkpt lat="60.016133688884" lon="23.423850371794">
        <ele>48.2</ele>
        <time>2014-05-13T19:25:15Z</time>
      </trkpt>
      <trkpt lat="60.016198480971" lon="23.423894795864">
        <ele>48.6</ele>
        <time>2014-05-13T19:25:19Z</time>
      </trkpt>
      <trkpt lat="60.016260758488" lon="23.424025553504">
        <ele>48.8</ele>
        <time>2014-05-13T19:25:24Z</time>
      </trkpt>
      <trkpt lat="60.016245335792" lon="23.424179780464">
        <ele>49.8</ele>
        <time>2014-05-13T19:25:29Z</time>
      </trkpt>
      <trkpt lat="60.016248604733" lon="23.4242421418">
        <ele>50</ele>
        <time>2014-05-13T19:25:30Z</time>
      </trkpt>
      <trkpt lat="60.016248940009" lon="23.424322859497">
        <ele>50.2</ele>
        <time>2014-05-13T19:25:32Z</time>
      </trkpt>
      <trkpt lat="60.016284982179" lon="23.424485468357">
        <ele>50.6</ele>
        <time>2014-05-13T19:25:37Z</time>
      </trkpt>
      <trkpt lat="60.016264949438" lon="23.424605413346">
        <ele>50.8</ele>
        <time>2014-05-13T19:25:41Z</time>
      </trkpt>
      <trkpt lat="60.016307026576" lon="23.424689316165">
        <ele>51</ele>
        <time>2014-05-13T19:25:45Z</time>
      </trkpt>
      <trkpt lat="60.016385313522" lon="23.424708929811">
        <ele>51.2</ele>
        <time>2014-05-13T19:25:49Z</time>
      </trkpt>
      <trkpt lat="60.016401155313" lon="23.424716473521">
        <ele>51.2</ele>
        <time>2014-05-13T19:25:50Z</time>
      </trkpt>
      <trkpt lat="60.01648438758" lon="23.424733404959">
        <ele>51.2</ele>
        <time>2014-05-13T19:25:53Z</time>
      </trkpt>
      <trkpt lat="60.016541049224" lon="23.42487329887">
        <ele>51.2</ele>
        <time>2014-05-13T19:25:57Z</time>
      </trkpt>
      <trkpt lat="60.016553789712" lon="23.42489844457">
        <ele>51.2</ele>
        <time>2014-05-13T19:25:58Z</time>
      </trkpt>
      <trkpt lat="60.016620928731" lon="23.424816385769">
        <ele>51.2</ele>
        <time>2014-05-13T19:26:02Z</time>
      </trkpt>
      <trkpt lat="60.016711620889" lon="23.424814793208">
        <ele>51.4</ele>
        <time>2014-05-13T19:26:06Z</time>
      </trkpt>
      <trkpt lat="60.016728049413" lon="23.424836669967">
        <ele>51.4</ele>
        <time>2014-05-13T19:26:07Z</time>
      </trkpt>
      <trkpt lat="60.016766941429" lon="23.424896013819">
        <ele>51.4</ele>
        <time>2014-05-13T19:26:09Z</time>
      </trkpt>
      <trkpt lat="60.016850173696" lon="23.42505183334">
        <ele>51.4</ele>
        <time>2014-05-13T19:26:14Z</time>
      </trkpt>
      <trkpt lat="60.016927873909" lon="23.425259955917">
        <ele>51.4</ele>
        <time>2014-05-13T19:26:19Z</time>
      </trkpt>
      <trkpt lat="60.016956707645" lon="23.425456176196">
        <ele>51.4</ele>
        <time>2014-05-13T19:26:23Z</time>
      </trkpt>
      <trkpt lat="60.017011357633" lon="23.425451230875">
        <ele>51.4</ele>
        <time>2014-05-13T19:26:26Z</time>
      </trkpt>
      <trkpt lat="60.017060894662" lon="23.425488781787">
        <ele>51.4</ele>
        <time>2014-05-13T19:26:29Z</time>
      </trkpt>
      <trkpt lat="60.017080005394" lon="23.425510071813">
        <ele>51.4</ele>
        <time>2014-05-13T19:26:30Z</time>
      </trkpt>
      <trkpt lat="60.017131134984" lon="23.425545694888">
        <ele>51.4</ele>
        <time>2014-05-13T19:26:32Z</time>
      </trkpt>
      <trkpt lat="60.017261138253" lon="23.425608223862">
        <ele>51.4</ele>
        <time>2014-05-13T19:26:38Z</time>
      </trkpt>
      <trkpt lat="60.017347304185" lon="23.425715344544">
        <ele>51.4</ele>
        <time>2014-05-13T19:26:43Z</time>
      </trkpt>
      <trkpt lat="60.017386782934" lon="23.425762115546">
        <ele>51.4</ele>
        <time>2014-05-13T19:26:46Z</time>
      </trkpt>
      <trkpt lat="60.017431123185" lon="23.425866218744">
        <ele>51.4</ele>
        <time>2014-05-13T19:26:52Z</time>
      </trkpt>
      <trkpt lat="60.017446713519" lon="23.425826488538">
        <ele>51.4</ele>
        <time>2014-05-13T19:27:00Z</time>
      </trkpt>
      <trkpt lat="60.017457861446" lon="23.425826907633">
        <ele>51.4</ele>
        <time>2014-05-13T19:27:03Z</time>
      </trkpt>
      <trkpt lat="60.017387537305" lon="23.42591516904">
        <ele>51.4</ele>
        <time>2014-05-13T19:27:07Z</time>
      </trkpt>
      <trkpt lat="60.017358284474" lon="23.425932603392">
        <ele>51.4</ele>
        <time>2014-05-13T19:27:09Z</time>
      </trkpt>
      <trkpt lat="60.017325762702" lon="23.42605766134">
        <ele>51.4</ele>
        <time>2014-05-13T19:27:13Z</time>
      </trkpt>
      <trkpt lat="60.017301958106" lon="23.426117508106">
        <ele>51.4</ele>
        <time>2014-05-13T19:27:15Z</time>
      </trkpt>
      <trkpt lat="60.017273794922" lon="23.426184982401">
        <ele>51.4</ele>
        <time>2014-05-13T19:27:17Z</time>
      </trkpt>
      <trkpt lat="60.01725216962" lon="23.426449431346">
        <ele>51.4</ele>
        <time>2014-05-13T19:27:22Z</time>
      </trkpt>
      <trkpt lat="60.017241776064" lon="23.426796525825">
        <ele>51.4</ele>
        <time>2014-05-13T19:27:28Z</time>
      </trkpt>
      <trkpt lat="60.01719936365" lon="23.427026776618">
        <ele>51.4</ele>
        <time>2014-05-13T19:27:33Z</time>
      </trkpt>
      <trkpt lat="60.017175726692" lon="23.427109841247">
        <ele>51.4</ele>
        <time>2014-05-13T19:27:35Z</time>
      </trkpt>
      <trkpt lat="60.017168015344" lon="23.427241520896">
        <ele>51.4</ele>
        <time>2014-05-13T19:27:38Z</time>
      </trkpt>
      <trkpt lat="60.017087549104" lon="23.427447212722">
        <ele>50.6</ele>
        <time>2014-05-13T19:27:43Z</time>
      </trkpt>
      <trkpt lat="60.017059972653" lon="23.427526756953">
        <ele>50.4</ele>
        <time>2014-05-13T19:27:45Z</time>
      </trkpt>
      <trkpt lat="60.017051590753" lon="23.427696658066">
        <ele>50</ele>
        <time>2014-05-13T19:27:50Z</time>
      </trkpt>
      <trkpt lat="60.017054440599" lon="23.427880808409">
        <ele>49.6</ele>
        <time>2014-05-13T19:27:55Z</time>
      </trkpt>
      <trkpt lat="60.017086710914" lon="23.427957754251">
        <ele>49.4</ele>
        <time>2014-05-13T19:27:58Z</time>
      </trkpt>
      <trkpt lat="60.017049243821" lon="23.42805422992">
        <ele>48.8</ele>
        <time>2014-05-13T19:28:01Z</time>
      </trkpt>
      <trkpt lat="60.01701580004" lon="23.428161266783">
        <ele>48.2</ele>
        <time>2014-05-13T19:28:05Z</time>
      </trkpt>
      <trkpt lat="60.017012866375" lon="23.428288336387">
        <ele>48</ele>
        <time>2014-05-13T19:28:09Z</time>
      </trkpt>
      <trkpt lat="60.017024517216" lon="23.428394954155">
        <ele>47.8</ele>
        <time>2014-05-13T19:28:12Z</time>
      </trkpt>
      <trkpt lat="60.017030133089" lon="23.428460165337">
        <ele>47.6</ele>
        <time>2014-05-13T19:28:14Z</time>
      </trkpt>
      <trkpt lat="60.017031474193" lon="23.428566615467">
        <ele>47.6</ele>
        <time>2014-05-13T19:28:17Z</time>
      </trkpt>
      <trkpt lat="60.017026612691" lon="23.42862503731">
        <ele>47.6</ele>
        <time>2014-05-13T19:28:19Z</time>
      </trkpt>
      <trkpt lat="60.016990151426" lon="23.428788316722">
        <ele>47.6</ele>
        <time>2014-05-13T19:28:24Z</time>
      </trkpt>
      <trkpt lat="60.016990235245" lon="23.428933658868">
        <ele>48</ele>
        <time>2014-05-13T19:28:27Z</time>
      </trkpt>
      <trkpt lat="60.016982356259" lon="23.428973221436">
        <ele>48.2</ele>
        <time>2014-05-13T19:28:29Z</time>
      </trkpt>
      <trkpt lat="60.016977410938" lon="23.428989901417">
        <ele>48.4</ele>
        <time>2014-05-13T19:28:30Z</time>
      </trkpt>
      <trkpt lat="60.016974812549" lon="23.429108002388">
        <ele>48.8</ele>
        <time>2014-05-13T19:28:37Z</time>
      </trkpt>
      <trkpt lat="60.016963664622" lon="23.429172710656">
        <ele>49.2</ele>
        <time>2014-05-13T19:28:47Z</time>
      </trkpt>
      <trkpt lat="60.016947571374" lon="23.429231719232">
        <ele>49.2</ele>
        <time>2014-05-13T19:28:50Z</time>
      </trkpt>
      <trkpt lat="60.01693449561" lon="23.429164244937">
        <ele>49.8</ele>
        <time>2014-05-13T19:28:53Z</time>
      </trkpt>
      <trkpt lat="60.016979925508" lon="23.429179164719">
        <ele>50.4</ele>
        <time>2014-05-13T19:28:57Z</time>
      </trkpt>
      <trkpt lat="60.017087381466" lon="23.429143625463">
        <ele>50.6</ele>
        <time>2014-05-13T19:29:01Z</time>
      </trkpt>
      <trkpt lat="60.017214115794" lon="23.429153851381">
        <ele>50.8</ele>
        <time>2014-05-13T19:29:05Z</time>
      </trkpt>
      <trkpt lat="60.017290055808" lon="23.429254098905">
        <ele>51</ele>
        <time>2014-05-13T19:29:09Z</time>
      </trkpt>
      <trkpt lat="60.017334563697" lon="23.429236496915">
        <ele>51.2</ele>
        <time>2014-05-13T19:29:12Z</time>
      </trkpt>
      <trkpt lat="60.017364654718" lon="23.429277316768">
        <ele>51.2</ele>
        <time>2014-05-13T19:29:16Z</time>
      </trkpt>
      <trkpt lat="60.01736364889" lon="23.42925870895">
        <ele>51.2</ele>
        <time>2014-05-13T19:29:24Z</time>
      </trkpt>
      <trkpt lat="60.017357194827" lon="23.42915309701">
        <ele>51.4</ele>
        <time>2014-05-13T19:29:30Z</time>
      </trkpt>
      <trkpt lat="60.017348477651" lon="23.428958217835">
        <ele>51.4</ele>
        <time>2014-05-13T19:29:36Z</time>
      </trkpt>
      <trkpt lat="60.017379071586" lon="23.428811702223">
        <ele>51.4</ele>
        <time>2014-05-13T19:29:40Z</time>
      </trkpt>
      <trkpt lat="60.017390890065" lon="23.428758728615">
        <ele>51.4</ele>
        <time>2014-05-13T19:29:42Z</time>
      </trkpt>
      <trkpt lat="60.017400864526" lon="23.42857642229">
        <ele>51.4</ele>
        <time>2014-05-13T19:29:45Z</time>
      </trkpt>
      <trkpt lat="60.017422489828" lon="23.428420267493">
        <ele>51.4</ele>
        <time>2014-05-13T19:29:48Z</time>
      </trkpt>
      <trkpt lat="60.01743321866" lon="23.428364444039">
        <ele>51.4</ele>
        <time>2014-05-13T19:29:49Z</time>
      </trkpt>
      <trkpt lat="60.01745417341" lon="23.428333766285">
        <ele>51.4</ele>
        <time>2014-05-13T19:29:51Z</time>
      </trkpt>
      <trkpt lat="60.017433134841" lon="23.4282235443">
        <ele>51</ele>
        <time>2014-05-13T19:29:54Z</time>
      </trkpt>
      <trkpt lat="60.017466243346" lon="23.428191944537">
        <ele>50.6</ele>
        <time>2014-05-13T19:29:56Z</time>
      </trkpt>
      <trkpt lat="60.01756229992" lon="23.428063198553">
        <ele>50</ele>
        <time>2014-05-13T19:30:03Z</time>
      </trkpt>
      <trkpt lat="60.017713509396" lon="23.427930764533">
        <ele>49.6</ele>
        <time>2014-05-13T19:30:08Z</time>
      </trkpt>
      <trkpt lat="60.017783330623" lon="23.42789748839">
        <ele>49.6</ele>
        <time>2014-05-13T19:30:12Z</time>
      </trkpt>
      <trkpt lat="60.017807219038" lon="23.427897153114">
        <ele>49.6</ele>
        <time>2014-05-13T19:30:14Z</time>
      </trkpt>
      <trkpt lat="60.017892379142" lon="23.427852309949">
        <ele>48.8</ele>
        <time>2014-05-13T19:30:20Z</time>
      </trkpt>
      <trkpt lat="60.017905538725" lon="23.427815261951">
        <ele>48.6</ele>
        <time>2014-05-13T19:30:21Z</time>
      </trkpt>
      <trkpt lat="60.017995727969" lon="23.427695652238">
        <ele>48</ele>
        <time>2014-05-13T19:30:26Z</time>
      </trkpt>
      <trkpt lat="60.018011988855" lon="23.427687773252">
        <ele>48</ele>
        <time>2014-05-13T19:30:27Z</time>
      </trkpt>
      <trkpt lat="60.018079211693" lon="23.427690706917">
        <ele>47.6</ele>
        <time>2014-05-13T19:30:30Z</time>
      </trkpt>
      <trkpt lat="60.018192451162" lon="23.427687857071">
        <ele>46.8</ele>
        <time>2014-05-13T19:30:34Z</time>
      </trkpt>
      <trkpt lat="60.018215585206" lon="23.427671931461">
        <ele>46.6</ele>
        <time>2014-05-13T19:30:36Z</time>
      </trkpt>
      <trkpt lat="60.018257913801" lon="23.427637230395">
        <ele>46.2</ele>
        <time>2014-05-13T19:30:40Z</time>
      </trkpt>
      <trkpt lat="60.018260428371" lon="23.427605462994">
        <ele>45.8</ele>
        <time>2014-05-13T19:30:44Z</time>
      </trkpt>
      <trkpt lat="60.018264870778" lon="23.427525834944">
        <ele>45.6</ele>
        <time>2014-05-13T19:30:49Z</time>
      </trkpt>
      <trkpt lat="60.018267720624" lon="23.427444195238">
        <ele>45.4</ele>
        <time>2014-05-13T19:30:54Z</time>
      </trkpt>
      <trkpt lat="60.018268474995" lon="23.427355011822">
        <ele>45.4</ele>
        <time>2014-05-13T19:30:58Z</time>
      </trkpt>
      <trkpt lat="60.018289513564" lon="23.427207825658">
        <ele>45.2</ele>
        <time>2014-05-13T19:31:02Z</time>
      </trkpt>
      <trkpt lat="60.01834768395" lon="23.427135406042">
        <ele>45.2</ele>
        <time>2014-05-13T19:31:06Z</time>
      </trkpt>
      <trkpt lat="60.018382552654" lon="23.42714563196">
        <ele>45.2</ele>
        <time>2014-05-13T19:31:09Z</time>
      </trkpt>
      <trkpt lat="60.01846335417" lon="23.427159294457">
        <ele>45.2</ele>
        <time>2014-05-13T19:31:15Z</time>
      </trkpt>
      <trkpt lat="60.018523033298" lon="23.427073631439">
        <ele>45</ele>
        <time>2014-05-13T19:31:20Z</time>
      </trkpt>
      <trkpt lat="60.018568547015" lon="23.426981598177">
        <ele>44.4</ele>
        <time>2014-05-13T19:31:24Z</time>
      </trkpt>
      <trkpt lat="60.018594363267" lon="23.426909094742">
        <ele>44</ele>
        <time>2014-05-13T19:31:28Z</time>
      </trkpt>
      <trkpt lat="60.018622274994" lon="23.426853690383">
        <ele>43.8</ele>
        <time>2014-05-13T19:31:30Z</time>
      </trkpt>
      <trkpt lat="60.018724115079" lon="23.426702564726">
        <ele>43.6</ele>
        <time>2014-05-13T19:31:36Z</time>
      </trkpt>
      <trkpt lat="60.018806928251" lon="23.426591420732">
        <ele>43.2</ele>
        <time>2014-05-13T19:31:41Z</time>
      </trkpt>
      <trkpt lat="60.018883538817" lon="23.426605753781">
        <ele>42.4</ele>
        <time>2014-05-13T19:31:45Z</time>
      </trkpt>
      <trkpt lat="60.0189386079" lon="23.426577590597">
        <ele>42</ele>
        <time>2014-05-13T19:31:49Z</time>
      </trkpt>
      <trkpt lat="60.018996359191" lon="23.426657218647">
        <ele>41.6</ele>
        <time>2014-05-13T19:31:53Z</time>
      </trkpt>
      <trkpt lat="60.019016811027" lon="23.4266812747">
        <ele>41.6</ele>
        <time>2014-05-13T19:31:54Z</time>
      </trkpt>
      <trkpt lat="60.019045141849" lon="23.42670725859">
        <ele>41.6</ele>
        <time>2014-05-13T19:31:56Z</time>
      </trkpt>
      <trkpt lat="60.01911965694" lon="23.426614470957">
        <ele>41.4</ele>
        <time>2014-05-13T19:32:00Z</time>
      </trkpt>
      <trkpt lat="60.019136504559" lon="23.426594522035">
        <ele>41.4</ele>
        <time>2014-05-13T19:32:01Z</time>
      </trkpt>
      <trkpt lat="60.019209007994" lon="23.426473235942">
        <ele>41.2</ele>
        <time>2014-05-13T19:32:06Z</time>
      </trkpt>
      <trkpt lat="60.019219988283" lon="23.426438953971">
        <ele>41.2</ele>
        <time>2014-05-13T19:32:07Z</time>
      </trkpt>
      <trkpt lat="60.019284948008" lon="23.426322780837">
        <ele>41.2</ele>
        <time>2014-05-13T19:32:12Z</time>
      </trkpt>
      <trkpt lat="60.019302130903" lon="23.426290007608">
        <ele>41.2</ele>
        <time>2014-05-13T19:32:13Z</time>
      </trkpt>
      <trkpt lat="60.019320906359" lon="23.426162518909">
        <ele>41.2</ele>
        <time>2014-05-13T19:32:17Z</time>
      </trkpt>
      <trkpt lat="60.019334568856" lon="23.426147682946">
        <ele>41.2</ele>
        <time>2014-05-13T19:32:18Z</time>
      </trkpt>
      <trkpt lat="60.01942056715" lon="23.426110132034">
        <ele>41.2</ele>
        <time>2014-05-13T19:32:22Z</time>
      </trkpt>
      <trkpt lat="60.019446215764" lon="23.426107282188">
        <ele>41.2</ele>
        <time>2014-05-13T19:32:23Z</time>
      </trkpt>
      <trkpt lat="60.019494663146" lon="23.426093871148">
        <ele>41.2</ele>
        <time>2014-05-13T19:32:27Z</time>
      </trkpt>
      <trkpt lat="60.019556437749" lon="23.426112227509">
        <ele>41.2</ele>
        <time>2014-05-13T19:32:33Z</time>
      </trkpt>
      <trkpt lat="60.019574458834" lon="23.426094960795">
        <ele>41.2</ele>
        <time>2014-05-13T19:32:35Z</time>
      </trkpt>
      <trkpt lat="60.019541937062" lon="23.425846102184">
        <ele>41.2</ele>
        <time>2014-05-13T19:32:45Z</time>
      </trkpt>
      <trkpt lat="60.019543529623" lon="23.425635297399">
        <ele>41.2</ele>
        <time>2014-05-13T19:32:49Z</time>
      </trkpt>
      <trkpt lat="60.019565322563" lon="23.425537396807">
        <ele>41.2</ele>
        <time>2014-05-13T19:32:51Z</time>
      </trkpt>
      <trkpt lat="60.019557862672" lon="23.425180579324">
        <ele>41.2</ele>
        <time>2014-05-13T19:32:57Z</time>
      </trkpt>
      <trkpt lat="60.0195504866" lon="23.424864665513">
        <ele>41.2</ele>
        <time>2014-05-13T19:33:02Z</time>
      </trkpt>
      <trkpt lat="60.019515953172" lon="23.424612118866">
        <ele>41.2</ele>
        <time>2014-05-13T19:33:06Z</time>
      </trkpt>
      <trkpt lat="60.019476558242" lon="23.424536514128">
        <ele>41.2</ele>
        <time>2014-05-13T19:33:07Z</time>
      </trkpt>
      <trkpt lat="60.019442024814" lon="23.424333420691">
        <ele>41.2</ele>
        <time>2014-05-13T19:33:10Z</time>
      </trkpt>
      <trkpt lat="60.019424339005" lon="23.42426225836">
        <ele>41.2</ele>
        <time>2014-05-13T19:33:11Z</time>
      </trkpt>
      <trkpt lat="60.019404138626" lon="23.424093530713">
        <ele>41.2</ele>
        <time>2014-05-13T19:33:14Z</time>
      </trkpt>
      <trkpt lat="60.019253432064" lon="23.423742999655">
        <ele>41.2</ele>
        <time>2014-05-13T19:33:21Z</time>
      </trkpt>
      <trkpt lat="60.019174726023" lon="23.423562537348">
        <ele>41.2</ele>
        <time>2014-05-13T19:33:25Z</time>
      </trkpt>
      <trkpt lat="60.019080178191" lon="23.423414177718">
        <ele>41.2</ele>
        <time>2014-05-13T19:33:29Z</time>
      </trkpt>
      <trkpt lat="60.01888244917" lon="23.423201612734">
        <ele>41.2</ele>
        <time>2014-05-13T19:33:37Z</time>
      </trkpt>
      <trkpt lat="60.018823105318" lon="23.423101784305">
        <ele>41.2</ele>
        <time>2014-05-13T19:33:40Z</time>
      </trkpt>
      <trkpt lat="60.018813130857" lon="23.423048643059">
        <ele>41.2</ele>
        <time>2014-05-13T19:33:41Z</time>
      </trkpt>
      <trkpt lat="60.018794523039" lon="23.422971613398">
        <ele>41.2</ele>
        <time>2014-05-13T19:33:44Z</time>
      </trkpt>
      <trkpt lat="60.018778010696" lon="23.422890392787">
        <ele>41.2</ele>
        <time>2014-05-13T19:33:47Z</time>
      </trkpt>
      <trkpt lat="60.018743141992" lon="23.422785870494">
        <ele>41.4</ele>
        <time>2014-05-13T19:33:52Z</time>
      </trkpt>
      <trkpt lat="60.0187290604" lon="23.422758377862">
        <ele>41.6</ele>
        <time>2014-05-13T19:33:54Z</time>
      </trkpt>
      <trkpt lat="60.018758229412" lon="23.422791570186">
        <ele>42.4</ele>
        <time>2014-05-13T19:34:00Z</time>
      </trkpt>
      <trkpt lat="60.018822267128" lon="23.422912940098">
        <ele>42.6</ele>
        <time>2014-05-13T19:34:03Z</time>
      </trkpt>
      <trkpt lat="60.018892088355" lon="23.423136988285">
        <ele>42.8</ele>
        <time>2014-05-13T19:34:07Z</time>
      </trkpt>
      <trkpt lat="60.019026701669" lon="23.423294232729">
        <ele>43</ele>
        <time>2014-05-13T19:34:12Z</time>
      </trkpt>
      <trkpt lat="60.019132900342" lon="23.423415435003">
        <ele>43</ele>
        <time>2014-05-13T19:34:16Z</time>
      </trkpt>
      <trkpt lat="60.019266591647" lon="23.423631688023">
        <ele>43</ele>
        <time>2014-05-13T19:34:21Z</time>
      </trkpt>
      <trkpt lat="60.019364324601" lon="23.4238984839">
        <ele>43.2</ele>
        <time>2014-05-13T19:34:26Z</time>
      </trkpt>
      <trkpt lat="60.019464069211" lon="23.4241750866">
        <ele>43.2</ele>
        <time>2014-05-13T19:34:31Z</time>
      </trkpt>
      <trkpt lat="60.019524418891" lon="23.42453383192">
        <ele>43.8</ele>
        <time>2014-05-13T19:34:37Z</time>
      </trkpt>
      <trkpt lat="60.01955132479" lon="23.424913615809">
        <ele>44.4</ele>
        <time>2014-05-13T19:34:43Z</time>
      </trkpt>
      <trkpt lat="60.019552330618" lon="23.425176304555">
        <ele>44.8</ele>
        <time>2014-05-13T19:34:47Z</time>
      </trkpt>
      <trkpt lat="60.019564232916" lon="23.425503031017">
        <ele>45.2</ele>
        <time>2014-05-13T19:34:52Z</time>
      </trkpt>
      <trkpt lat="60.01958569058" lon="23.425898740516">
        <ele>46.4</ele>
        <time>2014-05-13T19:34:59Z</time>
      </trkpt>
      <trkpt lat="60.019651656133" lon="23.426210547196">
        <ele>46.8</ele>
        <time>2014-05-13T19:35:05Z</time>
      </trkpt>
      <trkpt lat="60.019738827893" lon="23.426531993061">
        <ele>47.2</ele>
        <time>2014-05-13T19:35:11Z</time>
      </trkpt>
      <trkpt lat="60.019833878639" lon="23.426839189696">
        <ele>47.2</ele>
        <time>2014-05-13T19:35:17Z</time>
      </trkpt>
      <trkpt lat="60.01992431934" lon="23.427168346909">
        <ele>47.4</ele>
        <time>2014-05-13T19:35:23Z</time>
      </trkpt>
      <trkpt lat="60.019976035663" lon="23.427380744255">
        <ele>47.4</ele>
        <time>2014-05-13T19:35:27Z</time>
      </trkpt>
      <trkpt lat="60.019985674848" lon="23.427442854134">
        <ele>47.4</ele>
        <time>2014-05-13T19:35:28Z</time>
      </trkpt>
      <trkpt lat="60.020044851062" lon="23.427652653091">
        <ele>47.4</ele>
        <time>2014-05-13T19:35:32Z</time>
      </trkpt>
      <trkpt lat="60.02009866286" lon="23.427966387608">
        <ele>47.4</ele>
        <time>2014-05-13T19:35:37Z</time>
      </trkpt>
      <trkpt lat="60.020132861012" lon="23.428256736624">
        <ele>47.4</ele>
        <time>2014-05-13T19:35:42Z</time>
      </trkpt>
      <trkpt lat="60.020134788849" lon="23.428608692605">
        <ele>47.4</ele>
        <time>2014-05-13T19:35:47Z</time>
      </trkpt>
      <trkpt lat="60.020144260396" lon="23.429004905018">
        <ele>48</ele>
        <time>2014-05-13T19:35:53Z</time>
      </trkpt>
      <trkpt lat="60.020140320903" lon="23.429254182724">
        <ele>48.4</ele>
        <time>2014-05-13T19:35:57Z</time>
      </trkpt>
      <trkpt lat="60.020136716686" lon="23.429601696298">
        <ele>48.8</ele>
        <time>2014-05-13T19:36:02Z</time>
      </trkpt>
      <trkpt lat="60.020124143836" lon="23.429910317856">
        <ele>49</ele>
        <time>2014-05-13T19:36:07Z</time>
      </trkpt>
      <trkpt lat="60.020154989228" lon="23.429969661708">
        <ele>49.2</ele>
        <time>2014-05-13T19:36:08Z</time>
      </trkpt>
      <trkpt lat="60.020164712232" lon="23.430153141499">
        <ele>49.2</ele>
        <time>2014-05-13T19:36:11Z</time>
      </trkpt>
      <trkpt lat="60.020155911237" lon="23.430426056163">
        <ele>49.2</ele>
        <time>2014-05-13T19:36:15Z</time>
      </trkpt>
      <trkpt lat="60.020101847982" lon="23.430730822047">
        <ele>49.4</ele>
        <time>2014-05-13T19:36:20Z</time>
      </trkpt>
      <trkpt lat="60.020089023675" lon="23.430769462606">
        <ele>49.4</ele>
        <time>2014-05-13T19:36:21Z</time>
      </trkpt>
      <trkpt lat="60.019970084514" lon="23.430983955427">
        <ele>48.8</ele>
        <time>2014-05-13T19:36:26Z</time>
      </trkpt>
      <trkpt lat="60.019855923036" lon="23.431185456303">
        <ele>48.2</ele>
        <time>2014-05-13T19:36:30Z</time>
      </trkpt>
      <trkpt lat="60.019694068547" lon="23.431418221666">
        <ele>47.8</ele>
        <time>2014-05-13T19:36:36Z</time>
      </trkpt>
      <trkpt lat="60.019545038365" lon="23.431628020623">
        <ele>47.6</ele>
        <time>2014-05-13T19:36:41Z</time>
      </trkpt>
      <trkpt lat="60.01937949584" lon="23.431853996647">
        <ele>47.4</ele>
        <time>2014-05-13T19:36:47Z</time>
      </trkpt>
      <trkpt lat="60.019328282431" lon="23.431920548933">
        <ele>47.4</ele>
        <time>2014-05-13T19:36:49Z</time>
      </trkpt>
      <trkpt lat="60.019186628321" lon="23.432092294064">
        <ele>47.4</ele>
        <time>2014-05-13T19:36:55Z</time>
      </trkpt>
      <trkpt lat="60.019061402735" lon="23.432186758077">
        <ele>47.2</ele>
        <time>2014-05-13T19:36:59Z</time>
      </trkpt>
      <trkpt lat="60.018958473003" lon="23.432280132443">
        <ele>47.2</ele>
        <time>2014-05-13T19:37:02Z</time>
      </trkpt>
      <trkpt lat="60.018746997666" lon="23.432415164852">
        <ele>47.2</ele>
        <time>2014-05-13T19:37:08Z</time>
      </trkpt>
      <trkpt lat="60.018629399609" lon="23.432572325477">
        <ele>47.2</ele>
        <time>2014-05-13T19:37:12Z</time>
      </trkpt>
      <trkpt lat="60.01848849987" lon="23.432841049191">
        <ele>47.2</ele>
        <time>2014-05-13T19:37:18Z</time>
      </trkpt>
      <trkpt lat="60.018393197667" lon="23.433150760396">
        <ele>46.2</ele>
        <time>2014-05-13T19:37:24Z</time>
      </trkpt>
      <trkpt lat="60.018318095843" lon="23.433405318699">
        <ele>45.8</ele>
        <time>2014-05-13T19:37:29Z</time>
      </trkpt>
      <trkpt lat="60.018220614346" lon="23.43369524862">
        <ele>44.8</ele>
        <time>2014-05-13T19:37:35Z</time>
      </trkpt>
      <trkpt lat="60.018149619653" lon="23.433843105336">
        <ele>44.2</ele>
        <time>2014-05-13T19:37:38Z</time>
      </trkpt>
      <trkpt lat="60.01801492252" lon="23.434046114954">
        <ele>43.8</ele>
        <time>2014-05-13T19:37:44Z</time>
      </trkpt>
      <trkpt lat="60.017904197621" lon="23.434137561483">
        <ele>43.4</ele>
        <time>2014-05-13T19:37:48Z</time>
      </trkpt>
      <trkpt lat="60.017737146354" lon="23.434294135375">
        <ele>43.2</ele>
        <time>2014-05-13T19:37:54Z</time>
      </trkpt>
      <trkpt lat="60.017643269074" lon="23.434450709267">
        <ele>42.8</ele>
        <time>2014-05-13T19:37:58Z</time>
      </trkpt>
      <trkpt lat="60.017522485895" lon="23.43472538413">
        <ele>41.8</ele>
        <time>2014-05-13T19:38:05Z</time>
      </trkpt>
      <trkpt lat="60.017471021029" lon="23.435001316278">
        <ele>41.6</ele>
        <time>2014-05-13T19:38:10Z</time>
      </trkpt>
      <trkpt lat="60.01745417341" lon="23.435220922058">
        <ele>41.4</ele>
        <time>2014-05-13T19:38:14Z</time>
      </trkpt>
      <trkpt lat="60.017412934462" lon="23.435499201138">
        <ele>41.2</ele>
        <time>2014-05-13T19:38:19Z</time>
      </trkpt>
      <trkpt lat="60.017388207857" lon="23.435768427766">
        <ele>41.2</ele>
        <time>2014-05-13T19:38:24Z</time>
      </trkpt>
      <trkpt lat="60.017368342754" lon="23.435939669983">
        <ele>41.2</ele>
        <time>2014-05-13T19:38:27Z</time>
      </trkpt>
      <trkpt lat="60.017326265616" lon="23.436320878795">
        <ele>42</ele>
        <time>2014-05-13T19:38:34Z</time>
      </trkpt>
      <trkpt lat="60.017290391084" lon="23.436621118453">
        <ele>42.4</ele>
        <time>2014-05-13T19:38:39Z</time>
      </trkpt>
      <trkpt lat="60.017200034202" lon="23.436936696988">
        <ele>42.8</ele>
        <time>2014-05-13T19:38:45Z</time>
      </trkpt>
      <trkpt lat="60.017101882153" lon="23.437146663583">
        <ele>42.8</ele>
        <time>2014-05-13T19:38:50Z</time>
      </trkpt>
      <trkpt lat="60.016942123139" lon="23.437326874433">
        <ele>43</ele>
        <time>2014-05-13T19:38:56Z</time>
      </trkpt>
      <trkpt lat="60.016800469029" lon="23.437477497176">
        <ele>43</ele>
        <time>2014-05-13T19:39:01Z</time>
      </trkpt>
      <trkpt lat="60.016635764694" lon="23.43767078379">
        <ele>43</ele>
        <time>2014-05-13T19:39:07Z</time>
      </trkpt>
      <trkpt lat="60.016488410892" lon="23.437895837805">
        <ele>43</ele>
        <time>2014-05-13T19:39:12Z</time>
      </trkpt>
      <trkpt lat="60.016344326031" lon="23.438141427475">
        <ele>43.4</ele>
        <time>2014-05-13T19:39:18Z</time>
      </trkpt>
      <trkpt lat="60.016240306652" lon="23.438331780424">
        <ele>44</ele>
        <time>2014-05-13T19:39:22Z</time>
      </trkpt>
      <trkpt lat="60.016112650315" lon="23.4385751908">
        <ele>44.4</ele>
        <time>2014-05-13T19:39:28Z</time>
      </trkpt>
      <trkpt lat="60.015993878792" lon="23.438780714988">
        <ele>44.8</ele>
        <time>2014-05-13T19:39:33Z</time>
      </trkpt>
      <trkpt lat="60.015865970998" lon="23.439061089543">
        <ele>44.8</ele>
        <time>2014-05-13T19:39:39Z</time>
      </trkpt>
      <trkpt lat="60.015747199475" lon="23.439302823539">
        <ele>45</ele>
        <time>2014-05-13T19:39:44Z</time>
      </trkpt>
      <trkpt lat="60.015607473202" lon="23.439600967722">
        <ele>45</ele>
        <time>2014-05-13T19:39:50Z</time>
      </trkpt>
      <trkpt lat="60.015502783271" lon="23.439854017283">
        <ele>45.4</ele>
        <time>2014-05-13T19:39:55Z</time>
      </trkpt>
      <trkpt lat="60.015417204072" lon="23.44017948646">
        <ele>46.2</ele>
        <time>2014-05-13T19:40:01Z</time>
      </trkpt>
      <trkpt lat="60.015352076709" lon="23.440507973121">
        <ele>46.6</ele>
        <time>2014-05-13T19:40:07Z</time>
      </trkpt>
      <trkpt lat="60.015339755316" lon="23.4408718314">
        <ele>46.8</ele>
        <time>2014-05-13T19:40:12Z</time>
      </trkpt>
      <trkpt lat="60.015321901869" lon="23.441275503704">
        <ele>47.8</ele>
        <time>2014-05-13T19:40:18Z</time>
      </trkpt>
      <trkpt lat="60.015311089218" lon="23.441616730853">
        <ele>48.4</ele>
        <time>2014-05-13T19:40:23Z</time>
      </trkpt>
      <trkpt lat="60.015299019282" lon="23.441947312989">
        <ele>48.6</ele>
        <time>2014-05-13T19:40:28Z</time>
      </trkpt>
      <trkpt lat="60.015293571047" lon="23.442282337532">
        <ele>48.8</ele>
        <time>2014-05-13T19:40:33Z</time>
      </trkpt>
      <trkpt lat="60.015286027337" lon="23.442624570509">
        <ele>49</ele>
        <time>2014-05-13T19:40:37Z</time>
      </trkpt>
      <trkpt lat="60.015275466143" lon="23.442924307253">
        <ele>48.4</ele>
        <time>2014-05-13T19:40:42Z</time>
      </trkpt>
      <trkpt lat="60.015264737311" lon="23.443245166385">
        <ele>48</ele>
        <time>2014-05-13T19:40:46Z</time>
      </trkpt>
      <trkpt lat="60.015252164461" lon="23.443686221963">
        <ele>47.2</ele>
        <time>2014-05-13T19:40:52Z</time>
      </trkpt>
      <trkpt lat="60.015231880263" lon="23.444091403009">
        <ele>46.2</ele>
        <time>2014-05-13T19:40:58Z</time>
      </trkpt>
      <trkpt lat="60.01522039706" lon="23.444431540511">
        <ele>45.4</ele>
        <time>2014-05-13T19:41:03Z</time>
      </trkpt>
      <trkpt lat="60.015222492535" lon="23.444498428073">
        <ele>45.2</ele>
        <time>2014-05-13T19:41:04Z</time>
      </trkpt>
      <trkpt lat="60.015198520301" lon="23.44479288422">
        <ele>44.2</ele>
        <time>2014-05-13T19:41:08Z</time>
      </trkpt>
      <trkpt lat="60.015202543613" lon="23.445159340888">
        <ele>43.6</ele>
        <time>2014-05-13T19:41:14Z</time>
      </trkpt>
      <trkpt lat="60.015197682111" lon="23.445272412719">
        <ele>43.2</ele>
        <time>2014-05-13T19:41:18Z</time>
      </trkpt>
      <trkpt lat="60.015194329351" lon="23.445288841243">
        <ele>43.2</ele>
        <time>2014-05-13T19:41:20Z</time>
      </trkpt>
      <trkpt lat="60.015179158112" lon="23.445468381541">
        <ele>42.4</ele>
        <time>2014-05-13T19:41:25Z</time>
      </trkpt>
      <trkpt lat="60.015152252213" lon="23.445634343161">
        <ele>42</ele>
        <time>2014-05-13T19:41:28Z</time>
      </trkpt>
      <trkpt lat="60.015092573085" lon="23.445871048017">
        <ele>41.4</ele>
        <time>2014-05-13T19:41:33Z</time>
      </trkpt>
      <trkpt lat="60.015067343566" lon="23.445893511509">
        <ele>41.4</ele>
        <time>2014-05-13T19:41:34Z</time>
      </trkpt>
      <trkpt lat="60.014948152948" lon="23.445857217882">
        <ele>41.2</ele>
        <time>2014-05-13T19:41:37Z</time>
      </trkpt>
      <trkpt lat="60.01490942857" lon="23.445836766046">
        <ele>41.2</ele>
        <time>2014-05-13T19:41:39Z</time>
      </trkpt>
      <trkpt lat="60.014749418099" lon="23.445688238778">
        <ele>41</ele>
        <time>2014-05-13T19:41:44Z</time>
      </trkpt>
      <trkpt lat="60.014623857237" lon="23.445576172775">
        <ele>40.8</ele>
        <time>2014-05-13T19:41:49Z</time>
      </trkpt>
      <trkpt lat="60.014496871452" lon="23.445474667966">
        <ele>40.8</ele>
        <time>2014-05-13T19:41:53Z</time>
      </trkpt>
      <trkpt lat="60.01437298697" lon="23.44543912871">
        <ele>40.6</ele>
        <time>2014-05-13T19:41:57Z</time>
      </trkpt>
      <trkpt lat="60.014268045582" lon="23.445374085166">
        <ele>40</ele>
        <time>2014-05-13T19:42:01Z</time>
      </trkpt>
      <trkpt lat="60.014151034258" lon="23.445324548137">
        <ele>39.4</ele>
        <time>2014-05-13T19:42:05Z</time>
      </trkpt>
      <trkpt lat="60.014011643261" lon="23.44528322537">
        <ele>39.2</ele>
        <time>2014-05-13T19:42:10Z</time>
      </trkpt>
      <trkpt lat="60.013857164844" lon="23.445231509047">
        <ele>39</ele>
        <time>2014-05-13T19:42:15Z</time>
      </trkpt>
      <trkpt lat="60.013743003366" lon="23.445212063039">
        <ele>38.8</ele>
        <time>2014-05-13T19:42:19Z</time>
      </trkpt>
      <trkpt lat="60.013562708697" lon="23.445130255695">
        <ele>38.6</ele>
        <time>2014-05-13T19:42:25Z</time>
      </trkpt>
      <trkpt lat="60.013503113388" lon="23.445081137761">
        <ele>38.2</ele>
        <time>2014-05-13T19:42:27Z</time>
      </trkpt>
      <trkpt lat="60.013341677994" lon="23.445015423665">
        <ele>37.6</ele>
        <time>2014-05-13T19:42:32Z</time>
      </trkpt>
      <trkpt lat="60.013217290598" lon="23.444953146148">
        <ele>37.2</ele>
        <time>2014-05-13T19:42:37Z</time>
      </trkpt>
      <trkpt lat="60.013090640089" lon="23.444913835037">
        <ele>37</ele>
        <time>2014-05-13T19:42:41Z</time>
      </trkpt>
      <trkpt lat="60.012940939355" lon="23.444871171166">
        <ele>36.8</ele>
        <time>2014-05-13T19:42:46Z</time>
      </trkpt>
      <trkpt lat="60.01280389529" lon="23.444813084599">
        <ele>36.8</ele>
        <time>2014-05-13T19:42:50Z</time>
      </trkpt>
      <trkpt lat="60.012615470178" lon="23.444685428262">
        <ele>36.6</ele>
        <time>2014-05-13T19:42:56Z</time>
      </trkpt>
      <trkpt lat="60.012515725568" lon="23.444577385571">
        <ele>36.6</ele>
        <time>2014-05-13T19:43:00Z</time>
      </trkpt>
      <trkpt lat="60.012399217158" lon="23.444428774484">
        <ele>36.4</ele>
        <time>2014-05-13T19:43:05Z</time>
      </trkpt>
      <trkpt lat="60.012287234974" lon="23.444255855887">
        <ele>35.6</ele>
        <time>2014-05-13T19:43:10Z</time>
      </trkpt>
      <trkpt lat="60.012197464825" lon="23.444106238972">
        <ele>35</ele>
        <time>2014-05-13T19:43:14Z</time>
      </trkpt>
      <trkpt lat="60.012106018296" lon="23.443980594291">
        <ele>34.2</ele>
        <time>2014-05-13T19:43:18Z</time>
      </trkpt>
      <trkpt lat="60.011995712492" lon="23.443788145867">
        <ele>33.4</ele>
        <time>2014-05-13T19:43:22Z</time>
      </trkpt>
      <trkpt lat="60.01196319072" lon="23.44373676482">
        <ele>33</ele>
        <time>2014-05-13T19:43:23Z</time>
      </trkpt>
      <trkpt lat="60.011837629858" lon="23.443518248687">
        <ele>32</ele>
        <time>2014-05-13T19:43:28Z</time>
      </trkpt>
      <trkpt lat="60.011696981576" lon="23.443256146674">
        <ele>31.4</ele>
        <time>2014-05-13T19:43:32Z</time>
      </trkpt>
      <trkpt lat="60.011542084064" lon="23.442923888158">
        <ele>30.2</ele>
        <time>2014-05-13T19:43:38Z</time>
      </trkpt>
      <trkpt lat="60.011393724434" lon="23.442623229405">
        <ele>29.4</ele>
        <time>2014-05-13T19:43:44Z</time>
      </trkpt>
      <trkpt lat="60.011272941255" lon="23.442345285601">
        <ele>28.8</ele>
        <time>2014-05-13T19:43:49Z</time>
      </trkpt>
      <trkpt lat="60.011155259379" lon="23.442041777002">
        <ele>28.6</ele>
        <time>2014-05-13T19:43:55Z</time>
      </trkpt>
      <trkpt lat="60.011042774281" lon="23.441830217846">
        <ele>28.4</ele>
        <time>2014-05-13T19:44:00Z</time>
      </trkpt>
      <trkpt lat="60.010887709131" lon="23.441570546584">
        <ele>28.4</ele>
        <time>2014-05-13T19:44:07Z</time>
      </trkpt>
      <trkpt lat="60.010755023654" lon="23.441413721235">
        <ele>28.2</ele>
        <time>2014-05-13T19:44:12Z</time>
      </trkpt>
      <trkpt lat="60.01057514808" lon="23.441251447651">
        <ele>28.2</ele>
        <time>2014-05-13T19:44:19Z</time>
      </trkpt>
      <trkpt lat="60.01042343569" lon="23.441184811546">
        <ele>28.2</ele>
        <time>2014-05-13T19:44:24Z</time>
      </trkpt>
      <trkpt lat="60.010239285347" lon="23.441143488779">
        <ele>28.2</ele>
        <time>2014-05-13T19:44:30Z</time>
      </trkpt>
      <trkpt lat="60.010059409773" lon="23.441161509864">
        <ele>28.2</ele>
        <time>2014-05-13T19:44:36Z</time>
      </trkpt>
      <trkpt lat="60.009926724296" lon="23.441177519293">
        <ele>28.2</ele>
        <time>2014-05-13T19:44:40Z</time>
      </trkpt>
      <trkpt lat="60.009735952252" lon="23.441241305552">
        <ele>28.2</ele>
        <time>2014-05-13T19:44:47Z</time>
      </trkpt>
      <trkpt lat="60.009605529888" lon="23.441305427087">
        <ele>28.6</ele>
        <time>2014-05-13T19:44:51Z</time>
      </trkpt>
      <trkpt lat="60.00947963375" lon="23.441358400695">
        <ele>29.2</ele>
        <time>2014-05-13T19:44:55Z</time>
      </trkpt>
      <trkpt lat="60.009422301554" lon="23.441381618558">
        <ele>29.4</ele>
        <time>2014-05-13T19:44:57Z</time>
      </trkpt>
      <trkpt lat="60.009237648297" lon="23.441427299913">
        <ele>29.8</ele>
        <time>2014-05-13T19:45:03Z</time>
      </trkpt>
      <trkpt lat="60.009121307525" lon="23.441458229124">
        <ele>30</ele>
        <time>2014-05-13T19:45:07Z</time>
      </trkpt>
      <trkpt lat="60.008938414467" lon="23.441475495838">
        <ele>30</ele>
        <time>2014-05-13T19:45:13Z</time>
      </trkpt>
      <trkpt lat="60.008780415652" lon="23.441498462244">
        <ele>30.2</ele>
        <time>2014-05-13T19:45:18Z</time>
      </trkpt>
      <trkpt lat="60.008621746285" lon="23.441531235473">
        <ele>30.2</ele>
        <time>2014-05-13T19:45:23Z</time>
      </trkpt>
      <trkpt lat="60.0084779967" lon="23.441561494132">
        <ele>30.2</ele>
        <time>2014-05-13T19:45:28Z</time>
      </trkpt>
      <trkpt lat="60.008270293218" lon="23.441590495506">
        <ele>30.2</ele>
        <time>2014-05-13T19:45:35Z</time>
      </trkpt>
      <trkpt lat="60.008129896393" lon="23.441605163831">
        <ele>30.2</ele>
        <time>2014-05-13T19:45:40Z</time>
      </trkpt>
      <trkpt lat="60.007947254792" lon="23.441504581031">
        <ele>30.2</ele>
        <time>2014-05-13T19:45:47Z</time>
      </trkpt>
      <trkpt lat="60.007795961497" lon="23.44135379065">
        <ele>30.2</ele>
        <time>2014-05-13T19:45:52Z</time>
      </trkpt>
      <trkpt lat="60.007692025937" lon="23.441214064377">
        <ele>30.2</ele>
        <time>2014-05-13T19:45:57Z</time>
      </trkpt>
      <trkpt lat="60.007559424279" lon="23.441053970087">
        <ele>30.2</ele>
        <time>2014-05-13T19:46:02Z</time>
      </trkpt>
      <trkpt lat="60.007443921697" lon="23.440925643198">
        <ele>30.2</ele>
        <time>2014-05-13T19:46:06Z</time>
      </trkpt>
      <trkpt lat="60.007308637831" lon="23.440792454807">
        <ele>30.2</ele>
        <time>2014-05-13T19:46:11Z</time>
      </trkpt>
      <trkpt lat="60.007161451667" lon="23.440658847321">
        <ele>30.2</ele>
        <time>2014-05-13T19:46:16Z</time>
      </trkpt>
      <trkpt lat="60.00698015117" lon="23.440528927871">
        <ele>30.2</ele>
        <time>2014-05-13T19:46:22Z</time>
      </trkpt>
      <trkpt lat="60.006855763774" lon="23.440436894609">
        <ele>30.2</ele>
        <time>2014-05-13T19:46:26Z</time>
      </trkpt>
      <trkpt lat="60.006704889574" lon="23.440355338722">
        <ele>30.2</ele>
        <time>2014-05-13T19:46:31Z</time>
      </trkpt>
      <trkpt lat="60.006544543827" lon="23.440235812828">
        <ele>30.2</ele>
        <time>2014-05-13T19:46:36Z</time>
      </trkpt>
      <trkpt lat="60.006405069011" lon="23.440152832018">
        <ele>30.2</ele>
        <time>2014-05-13T19:46:41Z</time>
      </trkpt>
      <trkpt lat="60.006219829021" lon="23.440047639173">
        <ele>30.2</ele>
        <time>2014-05-13T19:46:48Z</time>
      </trkpt>
      <trkpt lat="60.006046910424" lon="23.439929957297">
        <ele>30.2</ele>
        <time>2014-05-13T19:46:54Z</time>
      </trkpt>
      <trkpt lat="60.005947584909" lon="23.439800205485">
        <ele>30.2</ele>
        <time>2014-05-13T19:46:58Z</time>
      </trkpt>
      <trkpt lat="60.005808780645" lon="23.43962795744">
        <ele>30.2</ele>
        <time>2014-05-13T19:47:03Z</time>
      </trkpt>
      <trkpt lat="60.005709958044" lon="23.439459732707">
        <ele>30.2</ele>
        <time>2014-05-13T19:47:07Z</time>
      </trkpt>
      <trkpt lat="60.005586408838" lon="23.439255298166">
        <ele>30.2</ele>
        <time>2014-05-13T19:47:12Z</time>
      </trkpt>
      <trkpt lat="60.00543117605" lon="23.439013647989">
        <ele>30.2</ele>
        <time>2014-05-13T19:47:18Z</time>
      </trkpt>
      <trkpt lat="60.005317517486" lon="23.438761771894">
        <ele>30.2</ele>
        <time>2014-05-13T19:47:23Z</time>
      </trkpt>
      <trkpt lat="60.005207798415" lon="23.438466393738">
        <ele>30.2</ele>
        <time>2014-05-13T19:47:28Z</time>
      </trkpt>
      <trkpt lat="60.005134121514" lon="23.43818878521">
        <ele>30.2</ele>
        <time>2014-05-13T19:47:32Z</time>
      </trkpt>
      <trkpt lat="60.005056924215" lon="23.437851413735">
        <ele>30.2</ele>
        <time>2014-05-13T19:47:38Z</time>
      </trkpt>
      <trkpt lat="60.005000262571" lon="23.437547988955">
        <ele>30.2</ele>
        <time>2014-05-13T19:47:43Z</time>
      </trkpt>
      <trkpt lat="60.004933207371" lon="23.437183543943">
        <ele>30.2</ele>
        <time>2014-05-13T19:47:49Z</time>
      </trkpt>
      <trkpt lat="60.00486036866" lon="23.436830665953">
        <ele>30.2</ele>
        <time>2014-05-13T19:47:55Z</time>
      </trkpt>
      <trkpt lat="60.004794486926" lon="23.436525564793">
        <ele>30.2</ele>
        <time>2014-05-13T19:48:00Z</time>
      </trkpt>
      <trkpt lat="60.004729024287" lon="23.436198670693">
        <ele>30.2</ele>
        <time>2014-05-13T19:48:05Z</time>
      </trkpt>
      <trkpt lat="60.00467093772" lon="23.435871860412">
        <ele>30.2</ele>
        <time>2014-05-13T19:48:10Z</time>
      </trkpt>
      <trkpt lat="60.004621149234" lon="23.435559886094">
        <ele>30</ele>
        <time>2014-05-13T19:48:15Z</time>
      </trkpt>
      <trkpt lat="60.004577395716" lon="23.435248498509">
        <ele>29.2</ele>
        <time>2014-05-13T19:48:20Z</time>
      </trkpt>
      <trkpt lat="60.004525763212" lon="23.434912635776">
        <ele>28.8</ele>
        <time>2014-05-13T19:48:25Z</time>
      </trkpt>
      <trkpt lat="60.004469269206" lon="23.434591022273">
        <ele>28</ele>
        <time>2014-05-13T19:48:30Z</time>
      </trkpt>
      <trkpt lat="60.004402633101" lon="23.434244765984">
        <ele>27</ele>
        <time>2014-05-13T19:48:36Z</time>
      </trkpt>
      <trkpt lat="60.00432811801" lon="23.434031614267">
        <ele>26.8</ele>
        <time>2014-05-13T19:48:40Z</time>
      </trkpt>
      <trkpt lat="60.004228289581" lon="23.433762722915">
        <ele>26.4</ele>
        <time>2014-05-13T19:48:45Z</time>
      </trkpt>
      <trkpt lat="60.004127622962" lon="23.433546469895">
        <ele>26.2</ele>
        <time>2014-05-13T19:48:50Z</time>
      </trkpt>
      <trkpt lat="60.004005247222" lon="23.433384531587">
        <ele>26.2</ele>
        <time>2014-05-13T19:48:55Z</time>
      </trkpt>
      <trkpt lat="60.003942047696" lon="23.433327869943">
        <ele>26.2</ele>
        <time>2014-05-13T19:48:59Z</time>
      </trkpt>
      <trkpt lat="60.003939700764" lon="23.433357541869">
        <ele>27</ele>
        <time>2014-05-13T19:49:05Z</time>
      </trkpt>
      <trkpt lat="60.003888822631" lon="23.433291827773">
        <ele>27.4</ele>
        <time>2014-05-13T19:49:11Z</time>
      </trkpt>
      <trkpt lat="60.003743312847" lon="23.433197279941">
        <ele>27.8</ele>
        <time>2014-05-13T19:49:16Z</time>
      </trkpt>
      <trkpt lat="60.003559833056" lon="23.433102732109">
        <ele>27.8</ele>
        <time>2014-05-13T19:49:22Z</time>
      </trkpt>
      <trkpt lat="60.003359086551" lon="23.432999131825">
        <ele>28</ele>
        <time>2014-05-13T19:49:28Z</time>
      </trkpt>
      <trkpt lat="60.003174349475" lon="23.432975662505">
        <ele>28</ele>
        <time>2014-05-13T19:49:34Z</time>
      </trkpt>
      <trkpt lat="60.003007214389" lon="23.432969040804">
        <ele>28</ele>
        <time>2014-05-13T19:49:39Z</time>
      </trkpt>
      <trkpt lat="60.002847790651" lon="23.432941799629">
        <ele>28</ele>
        <time>2014-05-13T19:49:44Z</time>
      </trkpt>
      <trkpt lat="60.002691803492" lon="23.43295009771">
        <ele>28</ele>
        <time>2014-05-13T19:49:49Z</time>
      </trkpt>
      <trkpt lat="60.002501953457" lon="23.432935513204">
        <ele>28</ele>
        <time>2014-05-13T19:49:55Z</time>
      </trkpt>
      <trkpt lat="60.002342194443" lon="23.432917659757">
        <ele>28</ele>
        <time>2014-05-13T19:50:00Z</time>
      </trkpt>
      <trkpt lat="60.002225350757" lon="23.432925371105">
        <ele>28</ele>
        <time>2014-05-13T19:50:04Z</time>
      </trkpt>
      <trkpt lat="60.002061987526" lon="23.432917156843">
        <ele>28</ele>
        <time>2014-05-13T19:50:09Z</time>
      </trkpt>
      <trkpt lat="60.001868784731" lon="23.432888155469">
        <ele>28</ele>
        <time>2014-05-13T19:50:15Z</time>
      </trkpt>
      <trkpt lat="60.001697626333" lon="23.432838953716">
        <ele>28</ele>
        <time>2014-05-13T19:50:20Z</time>
      </trkpt>
      <trkpt lat="60.00149838857" lon="23.432755972906">
        <ele>28</ele>
        <time>2014-05-13T19:50:26Z</time>
      </trkpt>
      <trkpt lat="60.001333097502" lon="23.432673662648">
        <ele>28</ele>
        <time>2014-05-13T19:50:31Z</time>
      </trkpt>
      <trkpt lat="60.00114215782" lon="23.432569391812">
        <ele>28</ele>
        <time>2014-05-13T19:50:37Z</time>
      </trkpt>
      <trkpt lat="60.000949122663" lon="23.432437795982">
        <ele>28</ele>
        <time>2014-05-13T19:50:43Z</time>
      </trkpt>
      <trkpt lat="60.000794476608" lon="23.432348193471">
        <ele>28</ele>
        <time>2014-05-13T19:50:48Z</time>
      </trkpt>
      <trkpt lat="60.000616361233" lon="23.432267140498">
        <ele>28</ele>
        <time>2014-05-13T19:50:54Z</time>
      </trkpt>
      <trkpt lat="60.000494572226" lon="23.432195475253">
        <ele>28</ele>
        <time>2014-05-13T19:50:58Z</time>
      </trkpt>
      <trkpt lat="60.000304470734" lon="23.432095814462">
        <ele>28</ele>
        <time>2014-05-13T19:51:04Z</time>
      </trkpt>
      <trkpt lat="60.000161643158" lon="23.431996153671">
        <ele>28</ele>
        <time>2014-05-13T19:51:09Z</time>
      </trkpt>
      <trkpt lat="59.99998629381" lon="23.431906802617">
        <ele>28</ele>
        <time>2014-05-13T19:51:15Z</time>
      </trkpt>
      <trkpt lat="59.999817566163" lon="23.431807477102">
        <ele>28</ele>
        <time>2014-05-13T19:51:21Z</time>
      </trkpt>
      <trkpt lat="59.999673062207" lon="23.431729609251">
        <ele>28.2</ele>
        <time>2014-05-13T19:51:26Z</time>
      </trkpt>
      <trkpt lat="59.999490588244" lon="23.431646460803">
        <ele>29.2</ele>
        <time>2014-05-13T19:51:32Z</time>
      </trkpt>
      <trkpt lat="59.999336193646" lon="23.431613771393">
        <ele>29.6</ele>
        <time>2014-05-13T19:51:37Z</time>
      </trkpt>
      <trkpt lat="59.999126562327" lon="23.431602707285">
        <ele>29.8</ele>
        <time>2014-05-13T19:51:43Z</time>
      </trkpt>
      <trkpt lat="59.99881115143" lon="23.431707397216">
        <ele>30</ele>
        <time>2014-05-13T19:51:53Z</time>
      </trkpt>
      <trkpt lat="59.998646698552" lon="23.431704882646">
        <ele>30</ele>
        <time>2014-05-13T19:51:58Z</time>
      </trkpt>
      <trkpt lat="59.998452992843" lon="23.431633552677">
        <ele>30</ele>
        <time>2014-05-13T19:52:04Z</time>
      </trkpt>
      <trkpt lat="59.998257778392" lon="23.431526767271">
        <ele>30</ele>
        <time>2014-05-13T19:52:10Z</time>
      </trkpt>
      <trkpt lat="59.998081171759" lon="23.431411348508">
        <ele>30</ele>
        <time>2014-05-13T19:52:16Z</time>
      </trkpt>
      <trkpt lat="59.997924514048" lon="23.431311687717">
        <ele>30</ele>
        <time>2014-05-13T19:52:21Z</time>
      </trkpt>
      <trkpt lat="59.99777933954" lon="23.431205572863">
        <ele>30</ele>
        <time>2014-05-13T19:52:26Z</time>
      </trkpt>
      <trkpt lat="59.997597871405" lon="23.43108261039">
        <ele>29.2</ele>
        <time>2014-05-13T19:52:31Z</time>
      </trkpt>
      <trkpt lat="59.997414643071" lon="23.430980435029">
        <ele>28.6</ele>
        <time>2014-05-13T19:52:37Z</time>
      </trkpt>
      <trkpt lat="59.997251698935" lon="23.430865435361">
        <ele>28.4</ele>
        <time>2014-05-13T19:52:42Z</time>
      </trkpt>
      <trkpt lat="59.997065788393" lon="23.430752028254">
        <ele>28.2</ele>
        <time>2014-05-13T19:52:48Z</time>
      </trkpt>
      <trkpt lat="59.996927487043" lon="23.430663766847">
        <ele>28.2</ele>
        <time>2014-05-13T19:52:52Z</time>
      </trkpt>
      <trkpt lat="59.996777534852" lon="23.430516329226">
        <ele>27.6</ele>
        <time>2014-05-13T19:52:58Z</time>
      </trkpt>
      <trkpt lat="59.996633449991" lon="23.430318264929">
        <ele>27</ele>
        <time>2014-05-13T19:53:03Z</time>
      </trkpt>
      <trkpt lat="59.996484168352" lon="23.430161607218">
        <ele>26</ele>
        <time>2014-05-13T19:53:08Z</time>
      </trkpt>
      <trkpt lat="59.996301862027" lon="23.430000171824">
        <ele>25</ele>
        <time>2014-05-13T19:53:14Z</time>
      </trkpt>
      <trkpt lat="59.996249475152" lon="23.429931859339">
        <ele>24.2</ele>
        <time>2014-05-13T19:53:16Z</time>
      </trkpt>
      <trkpt lat="59.996223575081" lon="23.429639331029">
        <ele>23.4</ele>
        <time>2014-05-13T19:53:20Z</time>
      </trkpt>
      <trkpt lat="59.996185521255" lon="23.429345713072">
        <ele>21.8</ele>
        <time>2014-05-13T19:53:25Z</time>
      </trkpt>
      <trkpt lat="59.996118214598" lon="23.429028709614">
        <ele>20.4</ele>
        <time>2014-05-13T19:53:30Z</time>
      </trkpt>
      <trkpt lat="59.99603255158" lon="23.42851188166">
        <ele>18.2</ele>
        <time>2014-05-13T19:53:39Z</time>
      </trkpt>
      <trkpt lat="59.995975638479" lon="23.428188424139">
        <ele>17</ele>
        <time>2014-05-13T19:53:44Z</time>
      </trkpt>
      <trkpt lat="59.995909002374" lon="23.427905954109">
        <ele>16.4</ele>
        <time>2014-05-13T19:53:49Z</time>
      </trkpt>
      <trkpt lat="59.995716973045" lon="23.427817944159">
        <ele>15.8</ele>
        <time>2014-05-13T19:53:56Z</time>
      </trkpt>
      <trkpt lat="59.995596357504" lon="23.42774745238">
        <ele>15.6</ele>
        <time>2014-05-13T19:54:01Z</time>
      </trkpt>
      <trkpt lat="59.995469874633" lon="23.427697496256">
        <ele>15.6</ele>
        <time>2014-05-13T19:54:05Z</time>
      </trkpt>
      <trkpt lat="59.995276923295" lon="23.427583670054">
        <ele>15.4</ele>
        <time>2014-05-13T19:54:11Z</time>
      </trkpt>
      <trkpt lat="59.995082630853" lon="23.427443859962">
        <ele>15.4</ele>
        <time>2014-05-13T19:54:17Z</time>
      </trkpt>
    </trkseg>
  </trk>
</gpx>